<?xml version="1.0" encoding="UTF-8" standalone="no" ?>
<gpx xmlns="http://www.topografix.com/GPX/1/1" xmlns:xsi="http://www.w3.org/2001/XMLSchema-instance" xsi:schemaLocation="http://www.topografix.com/GPX/1/1 http://www.topografix.com/GPX/1/1/gpx.xsd" version="1.1" creator="VisuGPX - https://www.visugpx.com">
  <metadata>
    <name>Nocturne Mercy le Bas 28 km</name>
    <desc><![CDATA[Nocturne MLB 16/09/2022
Parcours technique et difficile selon m�t�o.
Possibilit�s de raccourcis ou d'extension � partir du 2e ravitaillement.]]></desc>
  </metadata>
  <trk>
    <name><![CDATA[Nocturne Mercy le Bas 28 km_3]]></name>
    <trkseg>
      <trkpt lat="49.42447" lon="5.7566">
        <ele>327</ele>
        <time>2022-09-13T12:34:33.000Z</time>
      </trkpt>
      <trkpt lat="49.42446" lon="5.75658">
        <ele>327.20001220703</ele>
        <time>2022-09-13T12:34:34.000Z</time>
      </trkpt>
      <trkpt lat="49.42444" lon="5.75656">
        <ele>327.60000610352</ele>
        <time>2022-09-13T12:34:35.000Z</time>
      </trkpt>
      <trkpt lat="49.42442" lon="5.75652">
        <ele>328</ele>
        <time>2022-09-13T12:34:37.000Z</time>
      </trkpt>
      <trkpt lat="49.4244" lon="5.7565">
        <ele>328.39999389648</ele>
        <time>2022-09-13T12:34:38.000Z</time>
      </trkpt>
      <trkpt lat="49.42439" lon="5.75645">
        <ele>329</ele>
        <time>2022-09-13T12:34:40.000Z</time>
      </trkpt>
      <trkpt lat="49.42437" lon="5.75643">
        <ele>329.20001220703</ele>
        <time>2022-09-13T12:34:41.000Z</time>
      </trkpt>
      <trkpt lat="49.42435" lon="5.7564">
        <ele>329.60000610352</ele>
        <time>2022-09-13T12:34:42.000Z</time>
      </trkpt>
      <trkpt lat="49.42433" lon="5.75637">
        <ele>330.20001220703</ele>
        <time>2022-09-13T12:34:44.000Z</time>
      </trkpt>
      <trkpt lat="49.4243" lon="5.75635">
        <ele>331.20001220703</ele>
        <time>2022-09-13T12:34:45.000Z</time>
      </trkpt>
      <trkpt lat="49.42427" lon="5.75632">
        <ele>331.60000610352</ele>
        <time>2022-09-13T12:34:46.000Z</time>
      </trkpt>
      <trkpt lat="49.42425" lon="5.7563">
        <ele>332.39999389648</ele>
        <time>2022-09-13T12:34:47.000Z</time>
      </trkpt>
      <trkpt lat="49.42424" lon="5.75627">
        <ele>332.60000610352</ele>
        <time>2022-09-13T12:34:48.000Z</time>
      </trkpt>
      <trkpt lat="49.42422" lon="5.75622">
        <ele>333.79998779297</ele>
        <time>2022-09-13T12:34:50.000Z</time>
      </trkpt>
      <trkpt lat="49.4242" lon="5.75618">
        <ele>334</ele>
        <time>2022-09-13T12:34:51.000Z</time>
      </trkpt>
      <trkpt lat="49.4242" lon="5.75614">
        <ele>334.20001220703</ele>
        <time>2022-09-13T12:34:52.000Z</time>
      </trkpt>
      <trkpt lat="49.42419" lon="5.7561">
        <ele>334.20001220703</ele>
        <time>2022-09-13T12:34:53.000Z</time>
      </trkpt>
      <trkpt lat="49.42419" lon="5.75609">
        <ele>334.60000610352</ele>
        <time>2022-09-13T12:34:54.000Z</time>
      </trkpt>
      <trkpt lat="49.42417" lon="5.75603">
        <ele>334.79998779297</ele>
        <time>2022-09-13T12:34:55.000Z</time>
      </trkpt>
      <trkpt lat="49.42415" lon="5.756">
        <ele>335.20001220703</ele>
        <time>2022-09-13T12:34:56.000Z</time>
      </trkpt>
      <trkpt lat="49.42409" lon="5.75589">
        <ele>335.79998779297</ele>
        <time>2022-09-13T12:34:58.000Z</time>
      </trkpt>
      <trkpt lat="49.42407" lon="5.75586">
        <ele>336.20001220703</ele>
        <time>2022-09-13T12:34:59.000Z</time>
      </trkpt>
      <trkpt lat="49.42406" lon="5.75584">
        <ele>336.39999389648</ele>
        <time>2022-09-13T12:35:00.000Z</time>
      </trkpt>
      <trkpt lat="49.42405" lon="5.75582">
        <ele>336.79998779297</ele>
        <time>2022-09-13T12:35:01.000Z</time>
      </trkpt>
      <trkpt lat="49.42404" lon="5.75579">
        <ele>336.79998779297</ele>
        <time>2022-09-13T12:35:02.000Z</time>
      </trkpt>
      <trkpt lat="49.42404" lon="5.75577">
        <ele>337</ele>
        <time>2022-09-13T12:35:03.000Z</time>
      </trkpt>
      <trkpt lat="49.42402" lon="5.75575">
        <ele>337.20001220703</ele>
        <time>2022-09-13T12:35:04.000Z</time>
      </trkpt>
      <trkpt lat="49.42402" lon="5.75573">
        <ele>337.60000610352</ele>
        <time>2022-09-13T12:35:05.000Z</time>
      </trkpt>
      <trkpt lat="49.42401" lon="5.7557">
        <ele>337.79998779297</ele>
        <time>2022-09-13T12:35:06.000Z</time>
      </trkpt>
      <trkpt lat="49.424" lon="5.75568">
        <ele>338</ele>
        <time>2022-09-13T12:35:07.000Z</time>
      </trkpt>
      <trkpt lat="49.42399" lon="5.75565">
        <ele>338.39999389648</ele>
        <time>2022-09-13T12:35:08.000Z</time>
      </trkpt>
      <trkpt lat="49.424" lon="5.7556">
        <ele>338.79998779297</ele>
        <time>2022-09-13T12:35:10.000Z</time>
      </trkpt>
      <trkpt lat="49.42399" lon="5.75558">
        <ele>339</ele>
        <time>2022-09-13T12:35:11.000Z</time>
      </trkpt>
      <trkpt lat="49.42399" lon="5.75556">
        <ele>339.20001220703</ele>
        <time>2022-09-13T12:35:12.000Z</time>
      </trkpt>
      <trkpt lat="49.42396" lon="5.7555">
        <ele>339.79998779297</ele>
        <time>2022-09-13T12:35:13.000Z</time>
      </trkpt>
      <trkpt lat="49.42394" lon="5.75545">
        <ele>340.20001220703</ele>
        <time>2022-09-13T12:35:15.000Z</time>
      </trkpt>
      <trkpt lat="49.42393" lon="5.75542">
        <ele>340.20001220703</ele>
        <time>2022-09-13T12:35:16.000Z</time>
      </trkpt>
      <trkpt lat="49.42393" lon="5.75539">
        <ele>340.39999389648</ele>
        <time>2022-09-13T12:35:17.000Z</time>
      </trkpt>
      <trkpt lat="49.42393" lon="5.75534">
        <ele>340.60000610352</ele>
        <time>2022-09-13T12:35:18.000Z</time>
      </trkpt>
      <trkpt lat="49.42389" lon="5.75525">
        <ele>340.79998779297</ele>
        <time>2022-09-13T12:35:20.000Z</time>
      </trkpt>
      <trkpt lat="49.42387" lon="5.75523">
        <ele>340.79998779297</ele>
        <time>2022-09-13T12:35:21.000Z</time>
      </trkpt>
      <trkpt lat="49.42385" lon="5.7552">
        <ele>340.79998779297</ele>
        <time>2022-09-13T12:35:22.000Z</time>
      </trkpt>
      <trkpt lat="49.42383" lon="5.75518">
        <ele>340.79998779297</ele>
        <time>2022-09-13T12:35:23.000Z</time>
      </trkpt>
      <trkpt lat="49.42381" lon="5.75515">
        <ele>340.79998779297</ele>
        <time>2022-09-13T12:35:24.000Z</time>
      </trkpt>
      <trkpt lat="49.4238" lon="5.75512">
        <ele>341</ele>
        <time>2022-09-13T12:35:25.000Z</time>
      </trkpt>
      <trkpt lat="49.42378" lon="5.75509">
        <ele>341</ele>
        <time>2022-09-13T12:35:26.000Z</time>
      </trkpt>
      <trkpt lat="49.42375" lon="5.75505">
        <ele>341</ele>
        <time>2022-09-13T12:35:27.000Z</time>
      </trkpt>
      <trkpt lat="49.42373" lon="5.75502">
        <ele>341</ele>
        <time>2022-09-13T12:35:28.000Z</time>
      </trkpt>
      <trkpt lat="49.42372" lon="5.755">
        <ele>341.20001220703</ele>
        <time>2022-09-13T12:35:29.000Z</time>
      </trkpt>
      <trkpt lat="49.42371" lon="5.75498">
        <ele>341.20001220703</ele>
        <time>2022-09-13T12:35:30.000Z</time>
      </trkpt>
      <trkpt lat="49.42369" lon="5.75493">
        <ele>341.39999389648</ele>
        <time>2022-09-13T12:35:31.000Z</time>
      </trkpt>
      <trkpt lat="49.42368" lon="5.7549">
        <ele>341.39999389648</ele>
        <time>2022-09-13T12:35:32.000Z</time>
      </trkpt>
      <trkpt lat="49.42368" lon="5.75488">
        <ele>341.60000610352</ele>
        <time>2022-09-13T12:35:33.000Z</time>
      </trkpt>
      <trkpt lat="49.42366" lon="5.75485">
        <ele>341.60000610352</ele>
        <time>2022-09-13T12:35:34.000Z</time>
      </trkpt>
      <trkpt lat="49.42363" lon="5.75479">
        <ele>341.60000610352</ele>
        <time>2022-09-13T12:35:35.000Z</time>
      </trkpt>
      <trkpt lat="49.42361" lon="5.75471">
        <ele>342</ele>
        <time>2022-09-13T12:35:37.000Z</time>
      </trkpt>
      <trkpt lat="49.42361" lon="5.75468">
        <ele>342.20001220703</ele>
        <time>2022-09-13T12:35:38.000Z</time>
      </trkpt>
      <trkpt lat="49.42353" lon="5.75456">
        <ele>342.39999389648</ele>
        <time>2022-09-13T12:35:40.000Z</time>
      </trkpt>
      <trkpt lat="49.4235" lon="5.75451">
        <ele>342.39999389648</ele>
        <time>2022-09-13T12:35:41.000Z</time>
      </trkpt>
      <trkpt lat="49.42348" lon="5.75448">
        <ele>342.39999389648</ele>
        <time>2022-09-13T12:35:42.000Z</time>
      </trkpt>
      <trkpt lat="49.42346" lon="5.75444">
        <ele>342.39999389648</ele>
        <time>2022-09-13T12:35:43.000Z</time>
      </trkpt>
      <trkpt lat="49.42344" lon="5.75442">
        <ele>342.39999389648</ele>
        <time>2022-09-13T12:35:44.000Z</time>
      </trkpt>
      <trkpt lat="49.42342" lon="5.75439">
        <ele>342.39999389648</ele>
        <time>2022-09-13T12:35:45.000Z</time>
      </trkpt>
      <trkpt lat="49.42341" lon="5.75438">
        <ele>342.39999389648</ele>
        <time>2022-09-13T12:35:46.000Z</time>
      </trkpt>
      <trkpt lat="49.42342" lon="5.75436">
        <ele>342.39999389648</ele>
        <time>2022-09-13T12:35:47.000Z</time>
      </trkpt>
      <trkpt lat="49.42342" lon="5.75434">
        <ele>342.60000610352</ele>
        <time>2022-09-13T12:35:48.000Z</time>
      </trkpt>
      <trkpt lat="49.42342" lon="5.75433">
        <ele>342.60000610352</ele>
        <time>2022-09-13T12:35:49.000Z</time>
      </trkpt>
      <trkpt lat="49.42338" lon="5.75421">
        <ele>342.60000610352</ele>
        <time>2022-09-13T12:35:51.000Z</time>
      </trkpt>
      <trkpt lat="49.42336" lon="5.75416">
        <ele>342.79998779297</ele>
        <time>2022-09-13T12:35:52.000Z</time>
      </trkpt>
      <trkpt lat="49.42334" lon="5.75413">
        <ele>342.79998779297</ele>
        <time>2022-09-13T12:35:53.000Z</time>
      </trkpt>
      <trkpt lat="49.42332" lon="5.75408">
        <ele>342.79998779297</ele>
        <time>2022-09-13T12:35:54.000Z</time>
      </trkpt>
      <trkpt lat="49.42321" lon="5.75382">
        <ele>342.79998779297</ele>
        <time>2022-09-13T12:35:59.000Z</time>
      </trkpt>
      <trkpt lat="49.42316" lon="5.75374">
        <ele>342.79998779297</ele>
        <time>2022-09-13T12:36:01.000Z</time>
      </trkpt>
      <trkpt lat="49.42315" lon="5.75371">
        <ele>342.79998779297</ele>
        <time>2022-09-13T12:36:02.000Z</time>
      </trkpt>
      <trkpt lat="49.42314" lon="5.75368">
        <ele>342.79998779297</ele>
        <time>2022-09-13T12:36:03.000Z</time>
      </trkpt>
      <trkpt lat="49.42313" lon="5.75361">
        <ele>342.79998779297</ele>
        <time>2022-09-13T12:36:04.000Z</time>
      </trkpt>
      <trkpt lat="49.42309" lon="5.75351">
        <ele>342.60000610352</ele>
        <time>2022-09-13T12:36:05.000Z</time>
      </trkpt>
      <trkpt lat="49.42307" lon="5.75342">
        <ele>342.60000610352</ele>
        <time>2022-09-13T12:36:06.000Z</time>
      </trkpt>
      <trkpt lat="49.42305" lon="5.75339">
        <ele>342.60000610352</ele>
        <time>2022-09-13T12:36:07.000Z</time>
      </trkpt>
      <trkpt lat="49.42304" lon="5.75336">
        <ele>342.39999389648</ele>
        <time>2022-09-13T12:36:08.000Z</time>
      </trkpt>
      <trkpt lat="49.42302" lon="5.75333">
        <ele>342.39999389648</ele>
        <time>2022-09-13T12:36:09.000Z</time>
      </trkpt>
      <trkpt lat="49.423" lon="5.75329">
        <ele>342.39999389648</ele>
        <time>2022-09-13T12:36:10.000Z</time>
      </trkpt>
      <trkpt lat="49.423" lon="5.75329">
        <ele>342.39999389648</ele>
        <time>2022-09-13T12:36:11.000Z</time>
      </trkpt>
      <trkpt lat="49.42299" lon="5.75325">
        <ele>342.39999389648</ele>
        <time>2022-09-13T12:36:12.000Z</time>
      </trkpt>
      <trkpt lat="49.42298" lon="5.75323">
        <ele>342.39999389648</ele>
        <time>2022-09-13T12:36:13.000Z</time>
      </trkpt>
      <trkpt lat="49.42297" lon="5.75322">
        <ele>342.39999389648</ele>
        <time>2022-09-13T12:36:14.000Z</time>
      </trkpt>
      <trkpt lat="49.42296" lon="5.75321">
        <ele>342.39999389648</ele>
        <time>2022-09-13T12:36:15.000Z</time>
      </trkpt>
      <trkpt lat="49.42291" lon="5.75309">
        <ele>342.39999389648</ele>
        <time>2022-09-13T12:36:18.000Z</time>
      </trkpt>
      <trkpt lat="49.42291" lon="5.75309">
        <ele>342.39999389648</ele>
        <time>2022-09-13T12:36:19.000Z</time>
      </trkpt>
      <trkpt lat="49.42288" lon="5.75306">
        <ele>342.39999389648</ele>
        <time>2022-09-13T12:36:21.000Z</time>
      </trkpt>
      <trkpt lat="49.4228" lon="5.753">
        <ele>342.20001220703</ele>
        <time>2022-09-13T12:36:22.000Z</time>
      </trkpt>
      <trkpt lat="49.42275" lon="5.75289">
        <ele>342.20001220703</ele>
        <time>2022-09-13T12:36:23.000Z</time>
      </trkpt>
      <trkpt lat="49.42273" lon="5.75283">
        <ele>342.20001220703</ele>
        <time>2022-09-13T12:36:24.000Z</time>
      </trkpt>
      <trkpt lat="49.42271" lon="5.75279">
        <ele>342.20001220703</ele>
        <time>2022-09-13T12:36:25.000Z</time>
      </trkpt>
      <trkpt lat="49.4227" lon="5.75276">
        <ele>342.20001220703</ele>
        <time>2022-09-13T12:36:26.000Z</time>
      </trkpt>
      <trkpt lat="49.42267" lon="5.75263">
        <ele>342.20001220703</ele>
        <time>2022-09-13T12:36:28.000Z</time>
      </trkpt>
      <trkpt lat="49.42263" lon="5.75254">
        <ele>342</ele>
        <time>2022-09-13T12:36:31.000Z</time>
      </trkpt>
      <trkpt lat="49.42261" lon="5.75251">
        <ele>342</ele>
        <time>2022-09-13T12:36:32.000Z</time>
      </trkpt>
      <trkpt lat="49.4226" lon="5.7525">
        <ele>342</ele>
        <time>2022-09-13T12:36:33.000Z</time>
      </trkpt>
      <trkpt lat="49.4226" lon="5.75248">
        <ele>342</ele>
        <time>2022-09-13T12:36:34.000Z</time>
      </trkpt>
      <trkpt lat="49.4226" lon="5.75248">
        <ele>342</ele>
        <time>2022-09-13T12:36:36.000Z</time>
      </trkpt>
      <trkpt lat="49.42259" lon="5.75245">
        <ele>342</ele>
        <time>2022-09-13T12:36:38.000Z</time>
      </trkpt>
      <trkpt lat="49.4226" lon="5.75242">
        <ele>342</ele>
        <time>2022-09-13T12:36:40.000Z</time>
      </trkpt>
      <trkpt lat="49.42266" lon="5.75234">
        <ele>341.79998779297</ele>
        <time>2022-09-13T12:36:44.000Z</time>
      </trkpt>
      <trkpt lat="49.4228" lon="5.75213">
        <ele>341.39999389648</ele>
        <time>2022-09-13T12:36:50.000Z</time>
      </trkpt>
      <trkpt lat="49.42284" lon="5.75208">
        <ele>341.20001220703</ele>
        <time>2022-09-13T12:36:51.000Z</time>
      </trkpt>
      <trkpt lat="49.42287" lon="5.75207">
        <ele>341.20001220703</ele>
        <time>2022-09-13T12:36:52.000Z</time>
      </trkpt>
      <trkpt lat="49.42288" lon="5.75207">
        <ele>341.20001220703</ele>
        <time>2022-09-13T12:36:53.000Z</time>
      </trkpt>
      <trkpt lat="49.42295" lon="5.75199">
        <ele>341</ele>
        <time>2022-09-13T12:36:56.000Z</time>
      </trkpt>
      <trkpt lat="49.42299" lon="5.75197">
        <ele>341</ele>
        <time>2022-09-13T12:36:57.000Z</time>
      </trkpt>
      <trkpt lat="49.42303" lon="5.75195">
        <ele>341</ele>
        <time>2022-09-13T12:36:58.000Z</time>
      </trkpt>
      <trkpt lat="49.4231" lon="5.75193">
        <ele>341</ele>
        <time>2022-09-13T12:37:00.000Z</time>
      </trkpt>
      <trkpt lat="49.42314" lon="5.75193">
        <ele>340.79998779297</ele>
        <time>2022-09-13T12:37:01.000Z</time>
      </trkpt>
      <trkpt lat="49.42319" lon="5.75192">
        <ele>341</ele>
        <time>2022-09-13T12:37:02.000Z</time>
      </trkpt>
      <trkpt lat="49.42324" lon="5.7519">
        <ele>340.79998779297</ele>
        <time>2022-09-13T12:37:03.000Z</time>
      </trkpt>
      <trkpt lat="49.42333" lon="5.7518">
        <ele>340.60000610352</ele>
        <time>2022-09-13T12:37:06.000Z</time>
      </trkpt>
      <trkpt lat="49.42336" lon="5.75179">
        <ele>340.60000610352</ele>
        <time>2022-09-13T12:37:07.000Z</time>
      </trkpt>
      <trkpt lat="49.42344" lon="5.75177">
        <ele>340.60000610352</ele>
        <time>2022-09-13T12:37:09.000Z</time>
      </trkpt>
      <trkpt lat="49.42351" lon="5.75176">
        <ele>340.60000610352</ele>
        <time>2022-09-13T12:37:11.000Z</time>
      </trkpt>
      <trkpt lat="49.42352" lon="5.75177">
        <ele>340.60000610352</ele>
        <time>2022-09-13T12:37:12.000Z</time>
      </trkpt>
      <trkpt lat="49.42354" lon="5.75178">
        <ele>340.39999389648</ele>
        <time>2022-09-13T12:37:13.000Z</time>
      </trkpt>
      <trkpt lat="49.42356" lon="5.75179">
        <ele>340.39999389648</ele>
        <time>2022-09-13T12:37:14.000Z</time>
      </trkpt>
      <trkpt lat="49.42359" lon="5.75179">
        <ele>340.39999389648</ele>
        <time>2022-09-13T12:37:15.000Z</time>
      </trkpt>
      <trkpt lat="49.42365" lon="5.75178">
        <ele>340.39999389648</ele>
        <time>2022-09-13T12:37:17.000Z</time>
      </trkpt>
      <trkpt lat="49.42368" lon="5.75176">
        <ele>340.39999389648</ele>
        <time>2022-09-13T12:37:18.000Z</time>
      </trkpt>
      <trkpt lat="49.4237" lon="5.75174">
        <ele>340.39999389648</ele>
        <time>2022-09-13T12:37:19.000Z</time>
      </trkpt>
      <trkpt lat="49.42374" lon="5.75171">
        <ele>340.39999389648</ele>
        <time>2022-09-13T12:37:20.000Z</time>
      </trkpt>
      <trkpt lat="49.42375" lon="5.75167">
        <ele>340.39999389648</ele>
        <time>2022-09-13T12:37:21.000Z</time>
      </trkpt>
      <trkpt lat="49.42377" lon="5.75165">
        <ele>340.39999389648</ele>
        <time>2022-09-13T12:37:22.000Z</time>
      </trkpt>
      <trkpt lat="49.4238" lon="5.75164">
        <ele>340.39999389648</ele>
        <time>2022-09-13T12:37:23.000Z</time>
      </trkpt>
      <trkpt lat="49.42382" lon="5.75165">
        <ele>340.60000610352</ele>
        <time>2022-09-13T12:37:24.000Z</time>
      </trkpt>
      <trkpt lat="49.42386" lon="5.75166">
        <ele>340.60000610352</ele>
        <time>2022-09-13T12:37:25.000Z</time>
      </trkpt>
      <trkpt lat="49.4239" lon="5.75166">
        <ele>340.79998779297</ele>
        <time>2022-09-13T12:37:26.000Z</time>
      </trkpt>
      <trkpt lat="49.42393" lon="5.75164">
        <ele>340.79998779297</ele>
        <time>2022-09-13T12:37:27.000Z</time>
      </trkpt>
      <trkpt lat="49.42394" lon="5.75161">
        <ele>340.79998779297</ele>
        <time>2022-09-13T12:37:28.000Z</time>
      </trkpt>
      <trkpt lat="49.42396" lon="5.75159">
        <ele>340.79998779297</ele>
        <time>2022-09-13T12:37:29.000Z</time>
      </trkpt>
      <trkpt lat="49.42398" lon="5.75155">
        <ele>340.79998779297</ele>
        <time>2022-09-13T12:37:30.000Z</time>
      </trkpt>
      <trkpt lat="49.424" lon="5.7515">
        <ele>340.79998779297</ele>
        <time>2022-09-13T12:37:31.000Z</time>
      </trkpt>
      <trkpt lat="49.42402" lon="5.75144">
        <ele>340.79998779297</ele>
        <time>2022-09-13T12:37:32.000Z</time>
      </trkpt>
      <trkpt lat="49.42401" lon="5.7514">
        <ele>341</ele>
        <time>2022-09-13T12:37:33.000Z</time>
      </trkpt>
      <trkpt lat="49.42398" lon="5.75135">
        <ele>341</ele>
        <time>2022-09-13T12:37:34.000Z</time>
      </trkpt>
      <trkpt lat="49.42393" lon="5.75118">
        <ele>340.79998779297</ele>
        <time>2022-09-13T12:37:37.000Z</time>
      </trkpt>
      <trkpt lat="49.42391" lon="5.75115">
        <ele>340.79998779297</ele>
        <time>2022-09-13T12:37:38.000Z</time>
      </trkpt>
      <trkpt lat="49.42389" lon="5.75114">
        <ele>340.79998779297</ele>
        <time>2022-09-13T12:37:39.000Z</time>
      </trkpt>
      <trkpt lat="49.42387" lon="5.75108">
        <ele>340.60000610352</ele>
        <time>2022-09-13T12:37:41.000Z</time>
      </trkpt>
      <trkpt lat="49.42385" lon="5.751">
        <ele>340.39999389648</ele>
        <time>2022-09-13T12:37:42.000Z</time>
      </trkpt>
      <trkpt lat="49.42367" lon="5.75067">
        <ele>340.39999389648</ele>
        <time>2022-09-13T12:37:47.000Z</time>
      </trkpt>
      <trkpt lat="49.42357" lon="5.75048">
        <ele>340</ele>
        <time>2022-09-13T12:37:51.000Z</time>
      </trkpt>
      <trkpt lat="49.42355" lon="5.75044">
        <ele>339.79998779297</ele>
        <time>2022-09-13T12:37:52.000Z</time>
      </trkpt>
      <trkpt lat="49.42352" lon="5.75038">
        <ele>339.79998779297</ele>
        <time>2022-09-13T12:37:53.000Z</time>
      </trkpt>
      <trkpt lat="49.42342" lon="5.75008">
        <ele>339.39999389648</ele>
        <time>2022-09-13T12:37:56.000Z</time>
      </trkpt>
      <trkpt lat="49.42334" lon="5.74981">
        <ele>339.20001220703</ele>
        <time>2022-09-13T12:37:58.000Z</time>
      </trkpt>
      <trkpt lat="49.42331" lon="5.74971">
        <ele>339</ele>
        <time>2022-09-13T12:38:00.000Z</time>
      </trkpt>
      <trkpt lat="49.42329" lon="5.74965">
        <ele>339</ele>
        <time>2022-09-13T12:38:01.000Z</time>
      </trkpt>
      <trkpt lat="49.42327" lon="5.74962">
        <ele>339</ele>
        <time>2022-09-13T12:38:02.000Z</time>
      </trkpt>
      <trkpt lat="49.42319" lon="5.74944">
        <ele>338.79998779297</ele>
        <time>2022-09-13T12:38:05.000Z</time>
      </trkpt>
      <trkpt lat="49.42313" lon="5.74933">
        <ele>338.60000610352</ele>
        <time>2022-09-13T12:38:06.000Z</time>
      </trkpt>
      <trkpt lat="49.42312" lon="5.7493">
        <ele>338.60000610352</ele>
        <time>2022-09-13T12:38:07.000Z</time>
      </trkpt>
      <trkpt lat="49.42313" lon="5.74928">
        <ele>338.39999389648</ele>
        <time>2022-09-13T12:38:08.000Z</time>
      </trkpt>
      <trkpt lat="49.42314" lon="5.74926">
        <ele>338.39999389648</ele>
        <time>2022-09-13T12:38:09.000Z</time>
      </trkpt>
      <trkpt lat="49.42307" lon="5.74905">
        <ele>338.39999389648</ele>
        <time>2022-09-13T12:38:11.000Z</time>
      </trkpt>
      <trkpt lat="49.42306" lon="5.74901">
        <ele>338.39999389648</ele>
        <time>2022-09-13T12:38:12.000Z</time>
      </trkpt>
      <trkpt lat="49.42305" lon="5.74898">
        <ele>338.39999389648</ele>
        <time>2022-09-13T12:38:13.000Z</time>
      </trkpt>
      <trkpt lat="49.42303" lon="5.74894">
        <ele>338.39999389648</ele>
        <time>2022-09-13T12:38:15.000Z</time>
      </trkpt>
      <trkpt lat="49.42295" lon="5.74887">
        <ele>338.39999389648</ele>
        <time>2022-09-13T12:38:16.000Z</time>
      </trkpt>
      <trkpt lat="49.42293" lon="5.74883">
        <ele>338.39999389648</ele>
        <time>2022-09-13T12:38:17.000Z</time>
      </trkpt>
      <trkpt lat="49.42291" lon="5.74878">
        <ele>338.39999389648</ele>
        <time>2022-09-13T12:38:18.000Z</time>
      </trkpt>
      <trkpt lat="49.42287" lon="5.74868">
        <ele>338.39999389648</ele>
        <time>2022-09-13T12:38:20.000Z</time>
      </trkpt>
      <trkpt lat="49.42283" lon="5.74855">
        <ele>338.39999389648</ele>
        <time>2022-09-13T12:38:21.000Z</time>
      </trkpt>
      <trkpt lat="49.4228" lon="5.74852">
        <ele>338.39999389648</ele>
        <time>2022-09-13T12:38:22.000Z</time>
      </trkpt>
      <trkpt lat="49.42278" lon="5.74846">
        <ele>338.39999389648</ele>
        <time>2022-09-13T12:38:23.000Z</time>
      </trkpt>
      <trkpt lat="49.42269" lon="5.74826">
        <ele>338.60000610352</ele>
        <time>2022-09-13T12:38:26.000Z</time>
      </trkpt>
      <trkpt lat="49.42259" lon="5.74798">
        <ele>338.39999389648</ele>
        <time>2022-09-13T12:38:31.000Z</time>
      </trkpt>
      <trkpt lat="49.42259" lon="5.74792">
        <ele>338.20001220703</ele>
        <time>2022-09-13T12:38:33.000Z</time>
      </trkpt>
      <trkpt lat="49.42258" lon="5.7479">
        <ele>338</ele>
        <time>2022-09-13T12:38:34.000Z</time>
      </trkpt>
      <trkpt lat="49.42257" lon="5.74788">
        <ele>337.79998779297</ele>
        <time>2022-09-13T12:38:35.000Z</time>
      </trkpt>
      <trkpt lat="49.42254" lon="5.74784">
        <ele>337.79998779297</ele>
        <time>2022-09-13T12:38:36.000Z</time>
      </trkpt>
      <trkpt lat="49.4225" lon="5.74772">
        <ele>337.60000610352</ele>
        <time>2022-09-13T12:38:37.000Z</time>
      </trkpt>
      <trkpt lat="49.42249" lon="5.74769">
        <ele>337.39999389648</ele>
        <time>2022-09-13T12:38:38.000Z</time>
      </trkpt>
      <trkpt lat="49.42249" lon="5.74762">
        <ele>337</ele>
        <time>2022-09-13T12:38:40.000Z</time>
      </trkpt>
      <trkpt lat="49.42248" lon="5.74755">
        <ele>337</ele>
        <time>2022-09-13T12:38:42.000Z</time>
      </trkpt>
      <trkpt lat="49.42246" lon="5.74751">
        <ele>336.79998779297</ele>
        <time>2022-09-13T12:38:43.000Z</time>
      </trkpt>
      <trkpt lat="49.42243" lon="5.74748">
        <ele>336.79998779297</ele>
        <time>2022-09-13T12:38:44.000Z</time>
      </trkpt>
      <trkpt lat="49.42241" lon="5.74742">
        <ele>336.79998779297</ele>
        <time>2022-09-13T12:38:45.000Z</time>
      </trkpt>
      <trkpt lat="49.42223" lon="5.74718">
        <ele>336.60000610352</ele>
        <time>2022-09-13T12:38:50.000Z</time>
      </trkpt>
      <trkpt lat="49.42215" lon="5.74704">
        <ele>336.39999389648</ele>
        <time>2022-09-13T12:38:53.000Z</time>
      </trkpt>
      <trkpt lat="49.42212" lon="5.74699">
        <ele>336.20001220703</ele>
        <time>2022-09-13T12:38:54.000Z</time>
      </trkpt>
      <trkpt lat="49.42209" lon="5.74694">
        <ele>336</ele>
        <time>2022-09-13T12:38:55.000Z</time>
      </trkpt>
      <trkpt lat="49.42207" lon="5.74691">
        <ele>335.60000610352</ele>
        <time>2022-09-13T12:38:56.000Z</time>
      </trkpt>
      <trkpt lat="49.42205" lon="5.74687">
        <ele>335.60000610352</ele>
        <time>2022-09-13T12:38:57.000Z</time>
      </trkpt>
      <trkpt lat="49.42203" lon="5.74683">
        <ele>335.39999389648</ele>
        <time>2022-09-13T12:38:58.000Z</time>
      </trkpt>
      <trkpt lat="49.42198" lon="5.74671">
        <ele>335.20001220703</ele>
        <time>2022-09-13T12:39:00.000Z</time>
      </trkpt>
      <trkpt lat="49.42193" lon="5.74659">
        <ele>335</ele>
        <time>2022-09-13T12:39:01.000Z</time>
      </trkpt>
      <trkpt lat="49.4219" lon="5.74652">
        <ele>335</ele>
        <time>2022-09-13T12:39:02.000Z</time>
      </trkpt>
      <trkpt lat="49.42187" lon="5.74642">
        <ele>334.79998779297</ele>
        <time>2022-09-13T12:39:03.000Z</time>
      </trkpt>
      <trkpt lat="49.42171" lon="5.74603">
        <ele>334.60000610352</ele>
        <time>2022-09-13T12:39:08.000Z</time>
      </trkpt>
      <trkpt lat="49.42166" lon="5.74592">
        <ele>334.60000610352</ele>
        <time>2022-09-13T12:39:11.000Z</time>
      </trkpt>
      <trkpt lat="49.42155" lon="5.74554">
        <ele>334</ele>
        <time>2022-09-13T12:39:14.000Z</time>
      </trkpt>
      <trkpt lat="49.42147" lon="5.74537">
        <ele>333.60000610352</ele>
        <time>2022-09-13T12:39:16.000Z</time>
      </trkpt>
      <trkpt lat="49.42142" lon="5.7453">
        <ele>333.39999389648</ele>
        <time>2022-09-13T12:39:17.000Z</time>
      </trkpt>
      <trkpt lat="49.4214" lon="5.74522">
        <ele>333</ele>
        <time>2022-09-13T12:39:19.000Z</time>
      </trkpt>
      <trkpt lat="49.42139" lon="5.74517">
        <ele>332.79998779297</ele>
        <time>2022-09-13T12:39:20.000Z</time>
      </trkpt>
      <trkpt lat="49.42137" lon="5.74511">
        <ele>332.60000610352</ele>
        <time>2022-09-13T12:39:21.000Z</time>
      </trkpt>
      <trkpt lat="49.4213" lon="5.745">
        <ele>332.39999389648</ele>
        <time>2022-09-13T12:39:23.000Z</time>
      </trkpt>
      <trkpt lat="49.42125" lon="5.74491">
        <ele>332.20001220703</ele>
        <time>2022-09-13T12:39:26.000Z</time>
      </trkpt>
      <trkpt lat="49.42124" lon="5.74479">
        <ele>332.20001220703</ele>
        <time>2022-09-13T12:39:27.000Z</time>
      </trkpt>
      <trkpt lat="49.42123" lon="5.74473">
        <ele>332.20001220703</ele>
        <time>2022-09-13T12:39:28.000Z</time>
      </trkpt>
      <trkpt lat="49.42121" lon="5.74467">
        <ele>332.20001220703</ele>
        <time>2022-09-13T12:39:29.000Z</time>
      </trkpt>
      <trkpt lat="49.42119" lon="5.74463">
        <ele>332.20001220703</ele>
        <time>2022-09-13T12:39:30.000Z</time>
      </trkpt>
      <trkpt lat="49.42115" lon="5.74457">
        <ele>332</ele>
        <time>2022-09-13T12:39:31.000Z</time>
      </trkpt>
      <trkpt lat="49.42112" lon="5.74452">
        <ele>332</ele>
        <time>2022-09-13T12:39:32.000Z</time>
      </trkpt>
      <trkpt lat="49.42108" lon="5.74448">
        <ele>332</ele>
        <time>2022-09-13T12:39:33.000Z</time>
      </trkpt>
      <trkpt lat="49.42107" lon="5.74446">
        <ele>332</ele>
        <time>2022-09-13T12:39:34.000Z</time>
      </trkpt>
      <trkpt lat="49.42106" lon="5.74443">
        <ele>331.79998779297</ele>
        <time>2022-09-13T12:39:35.000Z</time>
      </trkpt>
      <trkpt lat="49.42103" lon="5.74439">
        <ele>331.79998779297</ele>
        <time>2022-09-13T12:39:37.000Z</time>
      </trkpt>
      <trkpt lat="49.42101" lon="5.74437">
        <ele>331.79998779297</ele>
        <time>2022-09-13T12:39:38.000Z</time>
      </trkpt>
      <trkpt lat="49.42093" lon="5.7443">
        <ele>331.60000610352</ele>
        <time>2022-09-13T12:39:40.000Z</time>
      </trkpt>
      <trkpt lat="49.42091" lon="5.74425">
        <ele>331.60000610352</ele>
        <time>2022-09-13T12:39:41.000Z</time>
      </trkpt>
      <trkpt lat="49.4209" lon="5.74422">
        <ele>331.60000610352</ele>
        <time>2022-09-13T12:39:42.000Z</time>
      </trkpt>
      <trkpt lat="49.42089" lon="5.74416">
        <ele>331.60000610352</ele>
        <time>2022-09-13T12:39:44.000Z</time>
      </trkpt>
      <trkpt lat="49.42089" lon="5.74411">
        <ele>331.39999389648</ele>
        <time>2022-09-13T12:39:45.000Z</time>
      </trkpt>
      <trkpt lat="49.42083" lon="5.74394">
        <ele>331.20001220703</ele>
        <time>2022-09-13T12:39:47.000Z</time>
      </trkpt>
      <trkpt lat="49.42078" lon="5.74378">
        <ele>331.20001220703</ele>
        <time>2022-09-13T12:39:50.000Z</time>
      </trkpt>
      <trkpt lat="49.42075" lon="5.74372">
        <ele>331.20001220703</ele>
        <time>2022-09-13T12:39:51.000Z</time>
      </trkpt>
      <trkpt lat="49.42074" lon="5.74364">
        <ele>331</ele>
        <time>2022-09-13T12:39:53.000Z</time>
      </trkpt>
      <trkpt lat="49.42072" lon="5.74358">
        <ele>331</ele>
        <time>2022-09-13T12:39:54.000Z</time>
      </trkpt>
      <trkpt lat="49.42065" lon="5.74344">
        <ele>330.79998779297</ele>
        <time>2022-09-13T12:39:56.000Z</time>
      </trkpt>
      <trkpt lat="49.42062" lon="5.7434">
        <ele>330.60000610352</ele>
        <time>2022-09-13T12:39:57.000Z</time>
      </trkpt>
      <trkpt lat="49.4206" lon="5.74338">
        <ele>330.20001220703</ele>
        <time>2022-09-13T12:39:58.000Z</time>
      </trkpt>
      <trkpt lat="49.4206" lon="5.74335">
        <ele>330.20001220703</ele>
        <time>2022-09-13T12:39:59.000Z</time>
      </trkpt>
      <trkpt lat="49.4206" lon="5.74331">
        <ele>330</ele>
        <time>2022-09-13T12:40:00.000Z</time>
      </trkpt>
      <trkpt lat="49.42058" lon="5.74318">
        <ele>329.60000610352</ele>
        <time>2022-09-13T12:40:02.000Z</time>
      </trkpt>
      <trkpt lat="49.42054" lon="5.74306">
        <ele>329.60000610352</ele>
        <time>2022-09-13T12:40:04.000Z</time>
      </trkpt>
      <trkpt lat="49.42044" lon="5.74284">
        <ele>329.39999389648</ele>
        <time>2022-09-13T12:40:08.000Z</time>
      </trkpt>
      <trkpt lat="49.42042" lon="5.74279">
        <ele>329.20001220703</ele>
        <time>2022-09-13T12:40:09.000Z</time>
      </trkpt>
      <trkpt lat="49.42035" lon="5.74258">
        <ele>329</ele>
        <time>2022-09-13T12:40:13.000Z</time>
      </trkpt>
      <trkpt lat="49.42036" lon="5.74255">
        <ele>328.79998779297</ele>
        <time>2022-09-13T12:40:14.000Z</time>
      </trkpt>
      <trkpt lat="49.42037" lon="5.74251">
        <ele>328.60000610352</ele>
        <time>2022-09-13T12:40:15.000Z</time>
      </trkpt>
      <trkpt lat="49.42039" lon="5.74243">
        <ele>328.39999389648</ele>
        <time>2022-09-13T12:40:17.000Z</time>
      </trkpt>
      <trkpt lat="49.42038" lon="5.74232">
        <ele>328.20001220703</ele>
        <time>2022-09-13T12:40:18.000Z</time>
      </trkpt>
      <trkpt lat="49.42037" lon="5.74223">
        <ele>328</ele>
        <time>2022-09-13T12:40:19.000Z</time>
      </trkpt>
      <trkpt lat="49.42035" lon="5.74215">
        <ele>327.79998779297</ele>
        <time>2022-09-13T12:40:20.000Z</time>
      </trkpt>
      <trkpt lat="49.42033" lon="5.74211">
        <ele>327.79998779297</ele>
        <time>2022-09-13T12:40:21.000Z</time>
      </trkpt>
      <trkpt lat="49.4203" lon="5.74203">
        <ele>327.60000610352</ele>
        <time>2022-09-13T12:40:22.000Z</time>
      </trkpt>
      <trkpt lat="49.42027" lon="5.74202">
        <ele>327.60000610352</ele>
        <time>2022-09-13T12:40:23.000Z</time>
      </trkpt>
      <trkpt lat="49.42026" lon="5.74203">
        <ele>327.60000610352</ele>
        <time>2022-09-13T12:40:24.000Z</time>
      </trkpt>
      <trkpt lat="49.42025" lon="5.74204">
        <ele>327.60000610352</ele>
        <time>2022-09-13T12:40:25.000Z</time>
      </trkpt>
      <trkpt lat="49.42023" lon="5.74208">
        <ele>327.60000610352</ele>
        <time>2022-09-13T12:40:26.000Z</time>
      </trkpt>
      <trkpt lat="49.42022" lon="5.74211">
        <ele>327.60000610352</ele>
        <time>2022-09-13T12:40:27.000Z</time>
      </trkpt>
      <trkpt lat="49.42021" lon="5.74213">
        <ele>327.39999389648</ele>
        <time>2022-09-13T12:40:28.000Z</time>
      </trkpt>
      <trkpt lat="49.4202" lon="5.74215">
        <ele>327.39999389648</ele>
        <time>2022-09-13T12:40:29.000Z</time>
      </trkpt>
      <trkpt lat="49.42019" lon="5.74221">
        <ele>327.60000610352</ele>
        <time>2022-09-13T12:40:31.000Z</time>
      </trkpt>
      <trkpt lat="49.42009" lon="5.74244">
        <ele>327.60000610352</ele>
        <time>2022-09-13T12:40:38.000Z</time>
      </trkpt>
      <trkpt lat="49.41995" lon="5.74267">
        <ele>328.60000610352</ele>
        <time>2022-09-13T12:40:45.000Z</time>
      </trkpt>
      <trkpt lat="49.41974" lon="5.74299">
        <ele>329</ele>
        <time>2022-09-13T12:40:55.000Z</time>
      </trkpt>
      <trkpt lat="49.41955" lon="5.74325">
        <ele>329.39999389648</ele>
        <time>2022-09-13T12:41:04.000Z</time>
      </trkpt>
      <trkpt lat="49.41949" lon="5.74333">
        <ele>329.60000610352</ele>
        <time>2022-09-13T12:41:06.000Z</time>
      </trkpt>
      <trkpt lat="49.41947" lon="5.74336">
        <ele>329.79998779297</ele>
        <time>2022-09-13T12:41:07.000Z</time>
      </trkpt>
      <trkpt lat="49.41943" lon="5.74342">
        <ele>330</ele>
        <time>2022-09-13T12:41:09.000Z</time>
      </trkpt>
      <trkpt lat="49.41937" lon="5.7435">
        <ele>330.39999389648</ele>
        <time>2022-09-13T12:41:12.000Z</time>
      </trkpt>
      <trkpt lat="49.41934" lon="5.74353">
        <ele>330.39999389648</ele>
        <time>2022-09-13T12:41:13.000Z</time>
      </trkpt>
      <trkpt lat="49.41932" lon="5.74355">
        <ele>330.39999389648</ele>
        <time>2022-09-13T12:41:14.000Z</time>
      </trkpt>
      <trkpt lat="49.4193" lon="5.74358">
        <ele>330.39999389648</ele>
        <time>2022-09-13T12:41:15.000Z</time>
      </trkpt>
      <trkpt lat="49.41928" lon="5.74361">
        <ele>330.60000610352</ele>
        <time>2022-09-13T12:41:16.000Z</time>
      </trkpt>
      <trkpt lat="49.41917" lon="5.74375">
        <ele>331</ele>
        <time>2022-09-13T12:41:21.000Z</time>
      </trkpt>
      <trkpt lat="49.41903" lon="5.74392">
        <ele>331.60000610352</ele>
        <time>2022-09-13T12:41:27.000Z</time>
      </trkpt>
      <trkpt lat="49.41892" lon="5.74405">
        <ele>331.79998779297</ele>
        <time>2022-09-13T12:41:31.000Z</time>
      </trkpt>
      <trkpt lat="49.41884" lon="5.74415">
        <ele>331.79998779297</ele>
        <time>2022-09-13T12:41:34.000Z</time>
      </trkpt>
      <trkpt lat="49.41868" lon="5.74436">
        <ele>332.79998779297</ele>
        <time>2022-09-13T12:41:40.000Z</time>
      </trkpt>
      <trkpt lat="49.41862" lon="5.74443">
        <ele>332.79998779297</ele>
        <time>2022-09-13T12:41:42.000Z</time>
      </trkpt>
      <trkpt lat="49.41831" lon="5.74479">
        <ele>333.79998779297</ele>
        <time>2022-09-13T12:41:52.000Z</time>
      </trkpt>
      <trkpt lat="49.41827" lon="5.74483">
        <ele>334</ele>
        <time>2022-09-13T12:41:53.000Z</time>
      </trkpt>
      <trkpt lat="49.4182" lon="5.74492">
        <ele>334</ele>
        <time>2022-09-13T12:41:55.000Z</time>
      </trkpt>
      <trkpt lat="49.41813" lon="5.745">
        <ele>334</ele>
        <time>2022-09-13T12:41:57.000Z</time>
      </trkpt>
      <trkpt lat="49.4181" lon="5.74504">
        <ele>334</ele>
        <time>2022-09-13T12:41:59.000Z</time>
      </trkpt>
      <trkpt lat="49.4178" lon="5.7454">
        <ele>333.79998779297</ele>
        <time>2022-09-13T12:42:06.000Z</time>
      </trkpt>
      <trkpt lat="49.41777" lon="5.74544">
        <ele>333.79998779297</ele>
        <time>2022-09-13T12:42:07.000Z</time>
      </trkpt>
      <trkpt lat="49.41767" lon="5.74555">
        <ele>334</ele>
        <time>2022-09-13T12:42:10.000Z</time>
      </trkpt>
      <trkpt lat="49.4176" lon="5.74562">
        <ele>334.20001220703</ele>
        <time>2022-09-13T12:42:12.000Z</time>
      </trkpt>
      <trkpt lat="49.41757" lon="5.74566">
        <ele>334.20001220703</ele>
        <time>2022-09-13T12:42:13.000Z</time>
      </trkpt>
      <trkpt lat="49.41753" lon="5.7457">
        <ele>334.20001220703</ele>
        <time>2022-09-13T12:42:14.000Z</time>
      </trkpt>
      <trkpt lat="49.4175" lon="5.74573">
        <ele>334.39999389648</ele>
        <time>2022-09-13T12:42:15.000Z</time>
      </trkpt>
      <trkpt lat="49.41744" lon="5.7458">
        <ele>334.79998779297</ele>
        <time>2022-09-13T12:42:17.000Z</time>
      </trkpt>
      <trkpt lat="49.41741" lon="5.74583">
        <ele>334.79998779297</ele>
        <time>2022-09-13T12:42:18.000Z</time>
      </trkpt>
      <trkpt lat="49.41738" lon="5.74585">
        <ele>335</ele>
        <time>2022-09-13T12:42:19.000Z</time>
      </trkpt>
      <trkpt lat="49.41734" lon="5.74588">
        <ele>335.20001220703</ele>
        <time>2022-09-13T12:42:20.000Z</time>
      </trkpt>
      <trkpt lat="49.41731" lon="5.74591">
        <ele>335.39999389648</ele>
        <time>2022-09-13T12:42:21.000Z</time>
      </trkpt>
      <trkpt lat="49.41727" lon="5.74594">
        <ele>335.39999389648</ele>
        <time>2022-09-13T12:42:22.000Z</time>
      </trkpt>
      <trkpt lat="49.41724" lon="5.74597">
        <ele>335.39999389648</ele>
        <time>2022-09-13T12:42:23.000Z</time>
      </trkpt>
      <trkpt lat="49.41716" lon="5.74602">
        <ele>335.79998779297</ele>
        <time>2022-09-13T12:42:25.000Z</time>
      </trkpt>
      <trkpt lat="49.41684" lon="5.74621">
        <ele>336.20001220703</ele>
        <time>2022-09-13T12:42:34.000Z</time>
      </trkpt>
      <trkpt lat="49.41681" lon="5.74622">
        <ele>336.20001220703</ele>
        <time>2022-09-13T12:42:35.000Z</time>
      </trkpt>
      <trkpt lat="49.41676" lon="5.74625">
        <ele>336.60000610352</ele>
        <time>2022-09-13T12:42:37.000Z</time>
      </trkpt>
      <trkpt lat="49.41672" lon="5.74626">
        <ele>337</ele>
        <time>2022-09-13T12:42:38.000Z</time>
      </trkpt>
      <trkpt lat="49.41671" lon="5.74627">
        <ele>337.20001220703</ele>
        <time>2022-09-13T12:42:39.000Z</time>
      </trkpt>
      <trkpt lat="49.41668" lon="5.74628">
        <ele>337.60000610352</ele>
        <time>2022-09-13T12:42:40.000Z</time>
      </trkpt>
      <trkpt lat="49.41666" lon="5.74629">
        <ele>337.79998779297</ele>
        <time>2022-09-13T12:42:41.000Z</time>
      </trkpt>
      <trkpt lat="49.41664" lon="5.7463">
        <ele>338</ele>
        <time>2022-09-13T12:42:42.000Z</time>
      </trkpt>
      <trkpt lat="49.41661" lon="5.74631">
        <ele>338</ele>
        <time>2022-09-13T12:42:43.000Z</time>
      </trkpt>
      <trkpt lat="49.41658" lon="5.74633">
        <ele>338.20001220703</ele>
        <time>2022-09-13T12:42:44.000Z</time>
      </trkpt>
      <trkpt lat="49.41656" lon="5.74635">
        <ele>338.39999389648</ele>
        <time>2022-09-13T12:42:45.000Z</time>
      </trkpt>
      <trkpt lat="49.41653" lon="5.74637">
        <ele>338.60000610352</ele>
        <time>2022-09-13T12:42:46.000Z</time>
      </trkpt>
      <trkpt lat="49.4165" lon="5.74638">
        <ele>338.79998779297</ele>
        <time>2022-09-13T12:42:47.000Z</time>
      </trkpt>
      <trkpt lat="49.41647" lon="5.74639">
        <ele>339</ele>
        <time>2022-09-13T12:42:48.000Z</time>
      </trkpt>
      <trkpt lat="49.41644" lon="5.74641">
        <ele>339.20001220703</ele>
        <time>2022-09-13T12:42:49.000Z</time>
      </trkpt>
      <trkpt lat="49.41642" lon="5.74642">
        <ele>339.39999389648</ele>
        <time>2022-09-13T12:42:50.000Z</time>
      </trkpt>
      <trkpt lat="49.41639" lon="5.74643">
        <ele>339.60000610352</ele>
        <time>2022-09-13T12:42:51.000Z</time>
      </trkpt>
      <trkpt lat="49.41637" lon="5.74644">
        <ele>340</ele>
        <time>2022-09-13T12:42:52.000Z</time>
      </trkpt>
      <trkpt lat="49.41634" lon="5.74646">
        <ele>340.60000610352</ele>
        <time>2022-09-13T12:42:53.000Z</time>
      </trkpt>
      <trkpt lat="49.41632" lon="5.74648">
        <ele>341.20001220703</ele>
        <time>2022-09-13T12:42:54.000Z</time>
      </trkpt>
      <trkpt lat="49.41629" lon="5.7465">
        <ele>341.60000610352</ele>
        <time>2022-09-13T12:42:55.000Z</time>
      </trkpt>
      <trkpt lat="49.41626" lon="5.74652">
        <ele>342</ele>
        <time>2022-09-13T12:42:56.000Z</time>
      </trkpt>
      <trkpt lat="49.41623" lon="5.74654">
        <ele>342</ele>
        <time>2022-09-13T12:42:57.000Z</time>
      </trkpt>
      <trkpt lat="49.4162" lon="5.74656">
        <ele>342.39999389648</ele>
        <time>2022-09-13T12:42:58.000Z</time>
      </trkpt>
      <trkpt lat="49.41618" lon="5.74658">
        <ele>342.79998779297</ele>
        <time>2022-09-13T12:42:59.000Z</time>
      </trkpt>
      <trkpt lat="49.41615" lon="5.74659">
        <ele>343</ele>
        <time>2022-09-13T12:43:00.000Z</time>
      </trkpt>
      <trkpt lat="49.41613" lon="5.74661">
        <ele>343.60000610352</ele>
        <time>2022-09-13T12:43:01.000Z</time>
      </trkpt>
      <trkpt lat="49.41609" lon="5.74663">
        <ele>343.60000610352</ele>
        <time>2022-09-13T12:43:02.000Z</time>
      </trkpt>
      <trkpt lat="49.41607" lon="5.74664">
        <ele>344.20001220703</ele>
        <time>2022-09-13T12:43:03.000Z</time>
      </trkpt>
      <trkpt lat="49.41604" lon="5.74665">
        <ele>344.39999389648</ele>
        <time>2022-09-13T12:43:04.000Z</time>
      </trkpt>
      <trkpt lat="49.41601" lon="5.74667">
        <ele>344.79998779297</ele>
        <time>2022-09-13T12:43:05.000Z</time>
      </trkpt>
      <trkpt lat="49.41599" lon="5.74669">
        <ele>345.20001220703</ele>
        <time>2022-09-13T12:43:06.000Z</time>
      </trkpt>
      <trkpt lat="49.41596" lon="5.74671">
        <ele>345.39999389648</ele>
        <time>2022-09-13T12:43:07.000Z</time>
      </trkpt>
      <trkpt lat="49.41593" lon="5.74673">
        <ele>345.60000610352</ele>
        <time>2022-09-13T12:43:08.000Z</time>
      </trkpt>
      <trkpt lat="49.4159" lon="5.74674">
        <ele>345.79998779297</ele>
        <time>2022-09-13T12:43:09.000Z</time>
      </trkpt>
      <trkpt lat="49.41588" lon="5.74676">
        <ele>346.20001220703</ele>
        <time>2022-09-13T12:43:10.000Z</time>
      </trkpt>
      <trkpt lat="49.41586" lon="5.74678">
        <ele>346.60000610352</ele>
        <time>2022-09-13T12:43:11.000Z</time>
      </trkpt>
      <trkpt lat="49.41583" lon="5.7468">
        <ele>347.20001220703</ele>
        <time>2022-09-13T12:43:12.000Z</time>
      </trkpt>
      <trkpt lat="49.4158" lon="5.74682">
        <ele>347.39999389648</ele>
        <time>2022-09-13T12:43:13.000Z</time>
      </trkpt>
      <trkpt lat="49.41577" lon="5.74683">
        <ele>347.79998779297</ele>
        <time>2022-09-13T12:43:14.000Z</time>
      </trkpt>
      <trkpt lat="49.41575" lon="5.74685">
        <ele>348</ele>
        <time>2022-09-13T12:43:15.000Z</time>
      </trkpt>
      <trkpt lat="49.41573" lon="5.74687">
        <ele>348.20001220703</ele>
        <time>2022-09-13T12:43:16.000Z</time>
      </trkpt>
      <trkpt lat="49.4157" lon="5.74689">
        <ele>348.60000610352</ele>
        <time>2022-09-13T12:43:17.000Z</time>
      </trkpt>
      <trkpt lat="49.41567" lon="5.74691">
        <ele>348.60000610352</ele>
        <time>2022-09-13T12:43:18.000Z</time>
      </trkpt>
      <trkpt lat="49.41565" lon="5.74693">
        <ele>349</ele>
        <time>2022-09-13T12:43:19.000Z</time>
      </trkpt>
      <trkpt lat="49.41562" lon="5.74696">
        <ele>349.20001220703</ele>
        <time>2022-09-13T12:43:20.000Z</time>
      </trkpt>
      <trkpt lat="49.41559" lon="5.74698">
        <ele>349.20001220703</ele>
        <time>2022-09-13T12:43:21.000Z</time>
      </trkpt>
      <trkpt lat="49.41556" lon="5.747">
        <ele>349.39999389648</ele>
        <time>2022-09-13T12:43:22.000Z</time>
      </trkpt>
      <trkpt lat="49.41553" lon="5.74701">
        <ele>349.60000610352</ele>
        <time>2022-09-13T12:43:23.000Z</time>
      </trkpt>
      <trkpt lat="49.4155" lon="5.74704">
        <ele>350.20001220703</ele>
        <time>2022-09-13T12:43:24.000Z</time>
      </trkpt>
      <trkpt lat="49.41547" lon="5.74706">
        <ele>350.39999389648</ele>
        <time>2022-09-13T12:43:25.000Z</time>
      </trkpt>
      <trkpt lat="49.41545" lon="5.74708">
        <ele>350.60000610352</ele>
        <time>2022-09-13T12:43:26.000Z</time>
      </trkpt>
      <trkpt lat="49.41543" lon="5.74711">
        <ele>350.60000610352</ele>
        <time>2022-09-13T12:43:27.000Z</time>
      </trkpt>
      <trkpt lat="49.4154" lon="5.74715">
        <ele>350.79998779297</ele>
        <time>2022-09-13T12:43:28.000Z</time>
      </trkpt>
      <trkpt lat="49.41537" lon="5.74718">
        <ele>351</ele>
        <time>2022-09-13T12:43:29.000Z</time>
      </trkpt>
      <trkpt lat="49.41535" lon="5.74721">
        <ele>351</ele>
        <time>2022-09-13T12:43:30.000Z</time>
      </trkpt>
      <trkpt lat="49.41533" lon="5.74724">
        <ele>351.20001220703</ele>
        <time>2022-09-13T12:43:31.000Z</time>
      </trkpt>
      <trkpt lat="49.4153" lon="5.74727">
        <ele>351.39999389648</ele>
        <time>2022-09-13T12:43:32.000Z</time>
      </trkpt>
      <trkpt lat="49.41528" lon="5.7473">
        <ele>351.39999389648</ele>
        <time>2022-09-13T12:43:33.000Z</time>
      </trkpt>
      <trkpt lat="49.41526" lon="5.74734">
        <ele>351.60000610352</ele>
        <time>2022-09-13T12:43:34.000Z</time>
      </trkpt>
      <trkpt lat="49.41523" lon="5.74738">
        <ele>351.79998779297</ele>
        <time>2022-09-13T12:43:35.000Z</time>
      </trkpt>
      <trkpt lat="49.41522" lon="5.74741">
        <ele>351.79998779297</ele>
        <time>2022-09-13T12:43:36.000Z</time>
      </trkpt>
      <trkpt lat="49.41519" lon="5.74745">
        <ele>351.79998779297</ele>
        <time>2022-09-13T12:43:37.000Z</time>
      </trkpt>
      <trkpt lat="49.41518" lon="5.74749">
        <ele>351.79998779297</ele>
        <time>2022-09-13T12:43:38.000Z</time>
      </trkpt>
      <trkpt lat="49.41515" lon="5.74755">
        <ele>351.79998779297</ele>
        <time>2022-09-13T12:43:40.000Z</time>
      </trkpt>
      <trkpt lat="49.41513" lon="5.74759">
        <ele>351.79998779297</ele>
        <time>2022-09-13T12:43:41.000Z</time>
      </trkpt>
      <trkpt lat="49.41512" lon="5.74761">
        <ele>351.79998779297</ele>
        <time>2022-09-13T12:43:42.000Z</time>
      </trkpt>
      <trkpt lat="49.4151" lon="5.74764">
        <ele>351.79998779297</ele>
        <time>2022-09-13T12:43:43.000Z</time>
      </trkpt>
      <trkpt lat="49.41508" lon="5.74767">
        <ele>351.79998779297</ele>
        <time>2022-09-13T12:43:44.000Z</time>
      </trkpt>
      <trkpt lat="49.41506" lon="5.74769">
        <ele>352</ele>
        <time>2022-09-13T12:43:45.000Z</time>
      </trkpt>
      <trkpt lat="49.41504" lon="5.74772">
        <ele>352</ele>
        <time>2022-09-13T12:43:46.000Z</time>
      </trkpt>
      <trkpt lat="49.41502" lon="5.74775">
        <ele>351.79998779297</ele>
        <time>2022-09-13T12:43:47.000Z</time>
      </trkpt>
      <trkpt lat="49.41499" lon="5.74777">
        <ele>351.79998779297</ele>
        <time>2022-09-13T12:43:48.000Z</time>
      </trkpt>
      <trkpt lat="49.41497" lon="5.74779">
        <ele>351.79998779297</ele>
        <time>2022-09-13T12:43:49.000Z</time>
      </trkpt>
      <trkpt lat="49.41494" lon="5.74782">
        <ele>351.79998779297</ele>
        <time>2022-09-13T12:43:50.000Z</time>
      </trkpt>
      <trkpt lat="49.41491" lon="5.74785">
        <ele>351.79998779297</ele>
        <time>2022-09-13T12:43:51.000Z</time>
      </trkpt>
      <trkpt lat="49.41479" lon="5.74793">
        <ele>351.39999389648</ele>
        <time>2022-09-13T12:43:55.000Z</time>
      </trkpt>
      <trkpt lat="49.41459" lon="5.74808">
        <ele>350.20001220703</ele>
        <time>2022-09-13T12:44:00.000Z</time>
      </trkpt>
      <trkpt lat="49.41426" lon="5.74831">
        <ele>349</ele>
        <time>2022-09-13T12:44:06.000Z</time>
      </trkpt>
      <trkpt lat="49.414" lon="5.7485">
        <ele>347.79998779297</ele>
        <time>2022-09-13T12:44:10.000Z</time>
      </trkpt>
      <trkpt lat="49.41381" lon="5.74864">
        <ele>346.39999389648</ele>
        <time>2022-09-13T12:44:13.000Z</time>
      </trkpt>
      <trkpt lat="49.41375" lon="5.74868">
        <ele>346.20001220703</ele>
        <time>2022-09-13T12:44:14.000Z</time>
      </trkpt>
      <trkpt lat="49.41369" lon="5.74873">
        <ele>345.79998779297</ele>
        <time>2022-09-13T12:44:15.000Z</time>
      </trkpt>
      <trkpt lat="49.41364" lon="5.74876">
        <ele>345.60000610352</ele>
        <time>2022-09-13T12:44:16.000Z</time>
      </trkpt>
      <trkpt lat="49.41358" lon="5.7488">
        <ele>345.20001220703</ele>
        <time>2022-09-13T12:44:17.000Z</time>
      </trkpt>
      <trkpt lat="49.41354" lon="5.74883">
        <ele>345</ele>
        <time>2022-09-13T12:44:18.000Z</time>
      </trkpt>
      <trkpt lat="49.41349" lon="5.74887">
        <ele>344.39999389648</ele>
        <time>2022-09-13T12:44:19.000Z</time>
      </trkpt>
      <trkpt lat="49.41345" lon="5.7489">
        <ele>343.39999389648</ele>
        <time>2022-09-13T12:44:20.000Z</time>
      </trkpt>
      <trkpt lat="49.4134" lon="5.74893">
        <ele>343</ele>
        <time>2022-09-13T12:44:21.000Z</time>
      </trkpt>
      <trkpt lat="49.41336" lon="5.74896">
        <ele>341.79998779297</ele>
        <time>2022-09-13T12:44:22.000Z</time>
      </trkpt>
      <trkpt lat="49.41331" lon="5.74899">
        <ele>341.39999389648</ele>
        <time>2022-09-13T12:44:23.000Z</time>
      </trkpt>
      <trkpt lat="49.41327" lon="5.74902">
        <ele>341</ele>
        <time>2022-09-13T12:44:24.000Z</time>
      </trkpt>
      <trkpt lat="49.41323" lon="5.74905">
        <ele>340.60000610352</ele>
        <time>2022-09-13T12:44:25.000Z</time>
      </trkpt>
      <trkpt lat="49.4131" lon="5.74915">
        <ele>339.60000610352</ele>
        <time>2022-09-13T12:44:28.000Z</time>
      </trkpt>
      <trkpt lat="49.41281" lon="5.74935">
        <ele>338.39999389648</ele>
        <time>2022-09-13T12:44:35.000Z</time>
      </trkpt>
      <trkpt lat="49.41273" lon="5.74941">
        <ele>338.20001220703</ele>
        <time>2022-09-13T12:44:37.000Z</time>
      </trkpt>
      <trkpt lat="49.41269" lon="5.74944">
        <ele>338</ele>
        <time>2022-09-13T12:44:38.000Z</time>
      </trkpt>
      <trkpt lat="49.41265" lon="5.74947">
        <ele>338</ele>
        <time>2022-09-13T12:44:39.000Z</time>
      </trkpt>
      <trkpt lat="49.41261" lon="5.7495">
        <ele>338</ele>
        <time>2022-09-13T12:44:40.000Z</time>
      </trkpt>
      <trkpt lat="49.41257" lon="5.74952">
        <ele>337.79998779297</ele>
        <time>2022-09-13T12:44:41.000Z</time>
      </trkpt>
      <trkpt lat="49.41254" lon="5.74955">
        <ele>337.79998779297</ele>
        <time>2022-09-13T12:44:42.000Z</time>
      </trkpt>
      <trkpt lat="49.4125" lon="5.74958">
        <ele>337.60000610352</ele>
        <time>2022-09-13T12:44:43.000Z</time>
      </trkpt>
      <trkpt lat="49.41246" lon="5.74961">
        <ele>337.39999389648</ele>
        <time>2022-09-13T12:44:44.000Z</time>
      </trkpt>
      <trkpt lat="49.41242" lon="5.74964">
        <ele>337</ele>
        <time>2022-09-13T12:44:45.000Z</time>
      </trkpt>
      <trkpt lat="49.41235" lon="5.7497">
        <ele>336.60000610352</ele>
        <time>2022-09-13T12:44:47.000Z</time>
      </trkpt>
      <trkpt lat="49.41231" lon="5.74973">
        <ele>336.39999389648</ele>
        <time>2022-09-13T12:44:48.000Z</time>
      </trkpt>
      <trkpt lat="49.41219" lon="5.74982">
        <ele>336</ele>
        <time>2022-09-13T12:44:51.000Z</time>
      </trkpt>
      <trkpt lat="49.41208" lon="5.74991">
        <ele>335.39999389648</ele>
        <time>2022-09-13T12:44:54.000Z</time>
      </trkpt>
      <trkpt lat="49.41201" lon="5.74996">
        <ele>335.20001220703</ele>
        <time>2022-09-13T12:44:56.000Z</time>
      </trkpt>
      <trkpt lat="49.41193" lon="5.75001">
        <ele>335</ele>
        <time>2022-09-13T12:44:58.000Z</time>
      </trkpt>
      <trkpt lat="49.41191" lon="5.75003">
        <ele>335</ele>
        <time>2022-09-13T12:44:59.000Z</time>
      </trkpt>
      <trkpt lat="49.41188" lon="5.75005">
        <ele>335</ele>
        <time>2022-09-13T12:45:00.000Z</time>
      </trkpt>
      <trkpt lat="49.41185" lon="5.75008">
        <ele>335</ele>
        <time>2022-09-13T12:45:01.000Z</time>
      </trkpt>
      <trkpt lat="49.41181" lon="5.75011">
        <ele>335</ele>
        <time>2022-09-13T12:45:02.000Z</time>
      </trkpt>
      <trkpt lat="49.41178" lon="5.75013">
        <ele>335</ele>
        <time>2022-09-13T12:45:03.000Z</time>
      </trkpt>
      <trkpt lat="49.41174" lon="5.75015">
        <ele>335</ele>
        <time>2022-09-13T12:45:04.000Z</time>
      </trkpt>
      <trkpt lat="49.41171" lon="5.75018">
        <ele>335.20001220703</ele>
        <time>2022-09-13T12:45:05.000Z</time>
      </trkpt>
      <trkpt lat="49.41168" lon="5.7502">
        <ele>335.20001220703</ele>
        <time>2022-09-13T12:45:06.000Z</time>
      </trkpt>
      <trkpt lat="49.41161" lon="5.75025">
        <ele>335.39999389648</ele>
        <time>2022-09-13T12:45:08.000Z</time>
      </trkpt>
      <trkpt lat="49.4114" lon="5.75037">
        <ele>335.79998779297</ele>
        <time>2022-09-13T12:45:15.000Z</time>
      </trkpt>
      <trkpt lat="49.41137" lon="5.7504">
        <ele>336</ele>
        <time>2022-09-13T12:45:16.000Z</time>
      </trkpt>
      <trkpt lat="49.41134" lon="5.75042">
        <ele>336</ele>
        <time>2022-09-13T12:45:17.000Z</time>
      </trkpt>
      <trkpt lat="49.41131" lon="5.75045">
        <ele>336</ele>
        <time>2022-09-13T12:45:18.000Z</time>
      </trkpt>
      <trkpt lat="49.41119" lon="5.75052">
        <ele>336</ele>
        <time>2022-09-13T12:45:21.000Z</time>
      </trkpt>
      <trkpt lat="49.41112" lon="5.75057">
        <ele>336</ele>
        <time>2022-09-13T12:45:23.000Z</time>
      </trkpt>
      <trkpt lat="49.41109" lon="5.75059">
        <ele>336</ele>
        <time>2022-09-13T12:45:24.000Z</time>
      </trkpt>
      <trkpt lat="49.41105" lon="5.75062">
        <ele>335.79998779297</ele>
        <time>2022-09-13T12:45:25.000Z</time>
      </trkpt>
      <trkpt lat="49.41078" lon="5.7508">
        <ele>335.39999389648</ele>
        <time>2022-09-13T12:45:32.000Z</time>
      </trkpt>
      <trkpt lat="49.41055" lon="5.75096">
        <ele>335.79998779297</ele>
        <time>2022-09-13T12:45:38.000Z</time>
      </trkpt>
      <trkpt lat="49.41051" lon="5.75098">
        <ele>335.79998779297</ele>
        <time>2022-09-13T12:45:39.000Z</time>
      </trkpt>
      <trkpt lat="49.41048" lon="5.75101">
        <ele>335.79998779297</ele>
        <time>2022-09-13T12:45:40.000Z</time>
      </trkpt>
      <trkpt lat="49.4104" lon="5.75106">
        <ele>336</ele>
        <time>2022-09-13T12:45:42.000Z</time>
      </trkpt>
      <trkpt lat="49.41037" lon="5.75109">
        <ele>336</ele>
        <time>2022-09-13T12:45:43.000Z</time>
      </trkpt>
      <trkpt lat="49.41033" lon="5.75112">
        <ele>336.20001220703</ele>
        <time>2022-09-13T12:45:44.000Z</time>
      </trkpt>
      <trkpt lat="49.40992" lon="5.75141">
        <ele>336.79998779297</ele>
        <time>2022-09-13T12:45:54.000Z</time>
      </trkpt>
      <trkpt lat="49.40988" lon="5.75144">
        <ele>336.79998779297</ele>
        <time>2022-09-13T12:45:55.000Z</time>
      </trkpt>
      <trkpt lat="49.40961" lon="5.75162">
        <ele>337.60000610352</ele>
        <time>2022-09-13T12:46:02.000Z</time>
      </trkpt>
      <trkpt lat="49.40958" lon="5.75165">
        <ele>337.60000610352</ele>
        <time>2022-09-13T12:46:03.000Z</time>
      </trkpt>
      <trkpt lat="49.40954" lon="5.75167">
        <ele>337.60000610352</ele>
        <time>2022-09-13T12:46:04.000Z</time>
      </trkpt>
      <trkpt lat="49.40951" lon="5.75171">
        <ele>337.60000610352</ele>
        <time>2022-09-13T12:46:05.000Z</time>
      </trkpt>
      <trkpt lat="49.40948" lon="5.75174">
        <ele>337.79998779297</ele>
        <time>2022-09-13T12:46:06.000Z</time>
      </trkpt>
      <trkpt lat="49.40944" lon="5.75177">
        <ele>338</ele>
        <time>2022-09-13T12:46:07.000Z</time>
      </trkpt>
      <trkpt lat="49.40941" lon="5.75179">
        <ele>338</ele>
        <time>2022-09-13T12:46:08.000Z</time>
      </trkpt>
      <trkpt lat="49.40937" lon="5.75181">
        <ele>338</ele>
        <time>2022-09-13T12:46:09.000Z</time>
      </trkpt>
      <trkpt lat="49.40934" lon="5.75184">
        <ele>338</ele>
        <time>2022-09-13T12:46:10.000Z</time>
      </trkpt>
      <trkpt lat="49.40927" lon="5.75188">
        <ele>338</ele>
        <time>2022-09-13T12:46:12.000Z</time>
      </trkpt>
      <trkpt lat="49.40923" lon="5.75191">
        <ele>338</ele>
        <time>2022-09-13T12:46:13.000Z</time>
      </trkpt>
      <trkpt lat="49.4092" lon="5.75194">
        <ele>338</ele>
        <time>2022-09-13T12:46:14.000Z</time>
      </trkpt>
      <trkpt lat="49.40917" lon="5.75197">
        <ele>338</ele>
        <time>2022-09-13T12:46:15.000Z</time>
      </trkpt>
      <trkpt lat="49.40913" lon="5.75199">
        <ele>338</ele>
        <time>2022-09-13T12:46:16.000Z</time>
      </trkpt>
      <trkpt lat="49.40903" lon="5.75207">
        <ele>338.60000610352</ele>
        <time>2022-09-13T12:46:19.000Z</time>
      </trkpt>
      <trkpt lat="49.40871" lon="5.7523">
        <ele>339.20001220703</ele>
        <time>2022-09-13T12:46:28.000Z</time>
      </trkpt>
      <trkpt lat="49.4086" lon="5.75239">
        <ele>339</ele>
        <time>2022-09-13T12:46:31.000Z</time>
      </trkpt>
      <trkpt lat="49.40841" lon="5.75252">
        <ele>338.79998779297</ele>
        <time>2022-09-13T12:46:36.000Z</time>
      </trkpt>
      <trkpt lat="49.40806" lon="5.75276">
        <ele>339</ele>
        <time>2022-09-13T12:46:45.000Z</time>
      </trkpt>
      <trkpt lat="49.40802" lon="5.75279">
        <ele>339</ele>
        <time>2022-09-13T12:46:46.000Z</time>
      </trkpt>
      <trkpt lat="49.40791" lon="5.75288">
        <ele>339</ele>
        <time>2022-09-13T12:46:49.000Z</time>
      </trkpt>
      <trkpt lat="49.40784" lon="5.75293">
        <ele>339</ele>
        <time>2022-09-13T12:46:51.000Z</time>
      </trkpt>
      <trkpt lat="49.40781" lon="5.75296">
        <ele>338.79998779297</ele>
        <time>2022-09-13T12:46:52.000Z</time>
      </trkpt>
      <trkpt lat="49.40777" lon="5.75299">
        <ele>338.79998779297</ele>
        <time>2022-09-13T12:46:53.000Z</time>
      </trkpt>
      <trkpt lat="49.40774" lon="5.75302">
        <ele>338.60000610352</ele>
        <time>2022-09-13T12:46:54.000Z</time>
      </trkpt>
      <trkpt lat="49.40771" lon="5.75304">
        <ele>338.60000610352</ele>
        <time>2022-09-13T12:46:55.000Z</time>
      </trkpt>
      <trkpt lat="49.40767" lon="5.75306">
        <ele>338.39999389648</ele>
        <time>2022-09-13T12:46:56.000Z</time>
      </trkpt>
      <trkpt lat="49.40764" lon="5.75308">
        <ele>338.20001220703</ele>
        <time>2022-09-13T12:46:57.000Z</time>
      </trkpt>
      <trkpt lat="49.40756" lon="5.75309">
        <ele>337.79998779297</ele>
        <time>2022-09-13T12:46:59.000Z</time>
      </trkpt>
      <trkpt lat="49.40753" lon="5.75306">
        <ele>337.79998779297</ele>
        <time>2022-09-13T12:47:00.000Z</time>
      </trkpt>
      <trkpt lat="49.40751" lon="5.75301">
        <ele>337.79998779297</ele>
        <time>2022-09-13T12:47:01.000Z</time>
      </trkpt>
      <trkpt lat="49.4075" lon="5.75295">
        <ele>337.39999389648</ele>
        <time>2022-09-13T12:47:02.000Z</time>
      </trkpt>
      <trkpt lat="49.40751" lon="5.75288">
        <ele>337.39999389648</ele>
        <time>2022-09-13T12:47:03.000Z</time>
      </trkpt>
      <trkpt lat="49.40751" lon="5.75281">
        <ele>337</ele>
        <time>2022-09-13T12:47:04.000Z</time>
      </trkpt>
      <trkpt lat="49.40751" lon="5.75274">
        <ele>336.79998779297</ele>
        <time>2022-09-13T12:47:05.000Z</time>
      </trkpt>
      <trkpt lat="49.40751" lon="5.75266">
        <ele>336.60000610352</ele>
        <time>2022-09-13T12:47:06.000Z</time>
      </trkpt>
      <trkpt lat="49.40752" lon="5.75249">
        <ele>336.20001220703</ele>
        <time>2022-09-13T12:47:08.000Z</time>
      </trkpt>
      <trkpt lat="49.40752" lon="5.7524">
        <ele>336</ele>
        <time>2022-09-13T12:47:09.000Z</time>
      </trkpt>
      <trkpt lat="49.40752" lon="5.75214">
        <ele>335.60000610352</ele>
        <time>2022-09-13T12:47:12.000Z</time>
      </trkpt>
      <trkpt lat="49.40752" lon="5.75168">
        <ele>335.39999389648</ele>
        <time>2022-09-13T12:47:17.000Z</time>
      </trkpt>
      <trkpt lat="49.40752" lon="5.75148">
        <ele>335.20001220703</ele>
        <time>2022-09-13T12:47:19.000Z</time>
      </trkpt>
      <trkpt lat="49.40753" lon="5.75079">
        <ele>334.79998779297</ele>
        <time>2022-09-13T12:47:26.000Z</time>
      </trkpt>
      <trkpt lat="49.40753" lon="5.7504">
        <ele>334.39999389648</ele>
        <time>2022-09-13T12:47:30.000Z</time>
      </trkpt>
      <trkpt lat="49.40753" lon="5.74976">
        <ele>333.79998779297</ele>
        <time>2022-09-13T12:47:36.000Z</time>
      </trkpt>
      <trkpt lat="49.40753" lon="5.74914">
        <ele>333.39999389648</ele>
        <time>2022-09-13T12:47:42.000Z</time>
      </trkpt>
      <trkpt lat="49.40753" lon="5.74904">
        <ele>333.20001220703</ele>
        <time>2022-09-13T12:47:43.000Z</time>
      </trkpt>
      <trkpt lat="49.40753" lon="5.74894">
        <ele>333.20001220703</ele>
        <time>2022-09-13T12:47:44.000Z</time>
      </trkpt>
      <trkpt lat="49.40753" lon="5.74874">
        <ele>333.20001220703</ele>
        <time>2022-09-13T12:47:46.000Z</time>
      </trkpt>
      <trkpt lat="49.40753" lon="5.74864">
        <ele>333</ele>
        <time>2022-09-13T12:47:47.000Z</time>
      </trkpt>
      <trkpt lat="49.40754" lon="5.74854">
        <ele>333</ele>
        <time>2022-09-13T12:47:48.000Z</time>
      </trkpt>
      <trkpt lat="49.40754" lon="5.74844">
        <ele>333</ele>
        <time>2022-09-13T12:47:49.000Z</time>
      </trkpt>
      <trkpt lat="49.40754" lon="5.74834">
        <ele>333</ele>
        <time>2022-09-13T12:47:50.000Z</time>
      </trkpt>
      <trkpt lat="49.40753" lon="5.74775">
        <ele>332.20001220703</ele>
        <time>2022-09-13T12:47:56.000Z</time>
      </trkpt>
      <trkpt lat="49.40751" lon="5.74706">
        <ele>331.60000610352</ele>
        <time>2022-09-13T12:48:03.000Z</time>
      </trkpt>
      <trkpt lat="49.40749" lon="5.74702">
        <ele>331.39999389648</ele>
        <time>2022-09-13T12:48:04.000Z</time>
      </trkpt>
      <trkpt lat="49.40745" lon="5.74701">
        <ele>331.20001220703</ele>
        <time>2022-09-13T12:48:05.000Z</time>
      </trkpt>
      <trkpt lat="49.4074" lon="5.74702">
        <ele>331.20001220703</ele>
        <time>2022-09-13T12:48:06.000Z</time>
      </trkpt>
      <trkpt lat="49.40736" lon="5.74704">
        <ele>331</ele>
        <time>2022-09-13T12:48:07.000Z</time>
      </trkpt>
      <trkpt lat="49.40732" lon="5.74707">
        <ele>331</ele>
        <time>2022-09-13T12:48:08.000Z</time>
      </trkpt>
      <trkpt lat="49.40728" lon="5.74709">
        <ele>330.79998779297</ele>
        <time>2022-09-13T12:48:09.000Z</time>
      </trkpt>
      <trkpt lat="49.40724" lon="5.74711">
        <ele>330.79998779297</ele>
        <time>2022-09-13T12:48:10.000Z</time>
      </trkpt>
      <trkpt lat="49.40695" lon="5.74727">
        <ele>331.20001220703</ele>
        <time>2022-09-13T12:48:16.000Z</time>
      </trkpt>
      <trkpt lat="49.40656" lon="5.74748">
        <ele>331.39999389648</ele>
        <time>2022-09-13T12:48:24.000Z</time>
      </trkpt>
      <trkpt lat="49.40638" lon="5.74757">
        <ele>331.20001220703</ele>
        <time>2022-09-13T12:48:28.000Z</time>
      </trkpt>
      <trkpt lat="49.4063" lon="5.74763">
        <ele>331.20001220703</ele>
        <time>2022-09-13T12:48:30.000Z</time>
      </trkpt>
      <trkpt lat="49.40625" lon="5.74765">
        <ele>331.20001220703</ele>
        <time>2022-09-13T12:48:31.000Z</time>
      </trkpt>
      <trkpt lat="49.4062" lon="5.74768">
        <ele>331.39999389648</ele>
        <time>2022-09-13T12:48:32.000Z</time>
      </trkpt>
      <trkpt lat="49.40616" lon="5.7477">
        <ele>331.20001220703</ele>
        <time>2022-09-13T12:48:33.000Z</time>
      </trkpt>
      <trkpt lat="49.40595" lon="5.74778">
        <ele>331</ele>
        <time>2022-09-13T12:48:37.000Z</time>
      </trkpt>
      <trkpt lat="49.40547" lon="5.74803">
        <ele>331</ele>
        <time>2022-09-13T12:48:47.000Z</time>
      </trkpt>
      <trkpt lat="49.40498" lon="5.74826">
        <ele>331</ele>
        <time>2022-09-13T12:48:56.000Z</time>
      </trkpt>
      <trkpt lat="49.40493" lon="5.74828">
        <ele>330.60000610352</ele>
        <time>2022-09-13T12:48:58.000Z</time>
      </trkpt>
      <trkpt lat="49.40466" lon="5.74841">
        <ele>329.60000610352</ele>
        <time>2022-09-13T12:49:02.000Z</time>
      </trkpt>
      <trkpt lat="49.40461" lon="5.74843">
        <ele>329.20001220703</ele>
        <time>2022-09-13T12:49:03.000Z</time>
      </trkpt>
      <trkpt lat="49.40433" lon="5.74855">
        <ele>328.60000610352</ele>
        <time>2022-09-13T12:49:08.000Z</time>
      </trkpt>
      <trkpt lat="49.40427" lon="5.74857">
        <ele>328.39999389648</ele>
        <time>2022-09-13T12:49:09.000Z</time>
      </trkpt>
      <trkpt lat="49.40407" lon="5.74866">
        <ele>327.20001220703</ele>
        <time>2022-09-13T12:49:13.000Z</time>
      </trkpt>
      <trkpt lat="49.40401" lon="5.74869">
        <ele>326.79998779297</ele>
        <time>2022-09-13T12:49:14.000Z</time>
      </trkpt>
      <trkpt lat="49.40391" lon="5.74873">
        <ele>326.39999389648</ele>
        <time>2022-09-13T12:49:16.000Z</time>
      </trkpt>
      <trkpt lat="49.40385" lon="5.74875">
        <ele>326</ele>
        <time>2022-09-13T12:49:17.000Z</time>
      </trkpt>
      <trkpt lat="49.40355" lon="5.74889">
        <ele>324.79998779297</ele>
        <time>2022-09-13T12:49:23.000Z</time>
      </trkpt>
      <trkpt lat="49.40345" lon="5.74894">
        <ele>324.20001220703</ele>
        <time>2022-09-13T12:49:25.000Z</time>
      </trkpt>
      <trkpt lat="49.40341" lon="5.74896">
        <ele>324</ele>
        <time>2022-09-13T12:49:26.000Z</time>
      </trkpt>
      <trkpt lat="49.40336" lon="5.74898">
        <ele>323.60000610352</ele>
        <time>2022-09-13T12:49:27.000Z</time>
      </trkpt>
      <trkpt lat="49.40331" lon="5.749">
        <ele>323.20001220703</ele>
        <time>2022-09-13T12:49:28.000Z</time>
      </trkpt>
      <trkpt lat="49.40326" lon="5.74902">
        <ele>323</ele>
        <time>2022-09-13T12:49:29.000Z</time>
      </trkpt>
      <trkpt lat="49.40321" lon="5.74905">
        <ele>322.79998779297</ele>
        <time>2022-09-13T12:49:30.000Z</time>
      </trkpt>
      <trkpt lat="49.40302" lon="5.74913">
        <ele>322</ele>
        <time>2022-09-13T12:49:34.000Z</time>
      </trkpt>
      <trkpt lat="49.40297" lon="5.74916">
        <ele>321.39999389648</ele>
        <time>2022-09-13T12:49:35.000Z</time>
      </trkpt>
      <trkpt lat="49.40292" lon="5.74918">
        <ele>321.39999389648</ele>
        <time>2022-09-13T12:49:36.000Z</time>
      </trkpt>
      <trkpt lat="49.40286" lon="5.74913">
        <ele>320.79998779297</ele>
        <time>2022-09-13T12:49:38.000Z</time>
      </trkpt>
      <trkpt lat="49.40283" lon="5.74908">
        <ele>320.39999389648</ele>
        <time>2022-09-13T12:49:39.000Z</time>
      </trkpt>
      <trkpt lat="49.40282" lon="5.74902">
        <ele>320.20001220703</ele>
        <time>2022-09-13T12:49:40.000Z</time>
      </trkpt>
      <trkpt lat="49.40279" lon="5.74889">
        <ele>319.79998779297</ele>
        <time>2022-09-13T12:49:42.000Z</time>
      </trkpt>
      <trkpt lat="49.40278" lon="5.74882">
        <ele>319.60000610352</ele>
        <time>2022-09-13T12:49:43.000Z</time>
      </trkpt>
      <trkpt lat="49.40276" lon="5.74875">
        <ele>319.39999389648</ele>
        <time>2022-09-13T12:49:44.000Z</time>
      </trkpt>
      <trkpt lat="49.40272" lon="5.74856">
        <ele>318.60000610352</ele>
        <time>2022-09-13T12:49:47.000Z</time>
      </trkpt>
      <trkpt lat="49.40271" lon="5.74849">
        <ele>318.60000610352</ele>
        <time>2022-09-13T12:49:48.000Z</time>
      </trkpt>
      <trkpt lat="49.40268" lon="5.74835">
        <ele>318.20001220703</ele>
        <time>2022-09-13T12:49:50.000Z</time>
      </trkpt>
      <trkpt lat="49.4026" lon="5.7479">
        <ele>317.60000610352</ele>
        <time>2022-09-13T12:49:56.000Z</time>
      </trkpt>
      <trkpt lat="49.40257" lon="5.74785">
        <ele>317.39999389648</ele>
        <time>2022-09-13T12:49:57.000Z</time>
      </trkpt>
      <trkpt lat="49.40254" lon="5.74782">
        <ele>317.20001220703</ele>
        <time>2022-09-13T12:49:58.000Z</time>
      </trkpt>
      <trkpt lat="49.4025" lon="5.74782">
        <ele>317.20001220703</ele>
        <time>2022-09-13T12:49:59.000Z</time>
      </trkpt>
      <trkpt lat="49.40245" lon="5.74783">
        <ele>317</ele>
        <time>2022-09-13T12:50:00.000Z</time>
      </trkpt>
      <trkpt lat="49.4024" lon="5.74786">
        <ele>316.39999389648</ele>
        <time>2022-09-13T12:50:01.000Z</time>
      </trkpt>
      <trkpt lat="49.40234" lon="5.7479">
        <ele>316.20001220703</ele>
        <time>2022-09-13T12:50:02.000Z</time>
      </trkpt>
      <trkpt lat="49.40227" lon="5.74793">
        <ele>315.60000610352</ele>
        <time>2022-09-13T12:50:03.000Z</time>
      </trkpt>
      <trkpt lat="49.40221" lon="5.74796">
        <ele>315.39999389648</ele>
        <time>2022-09-13T12:50:04.000Z</time>
      </trkpt>
      <trkpt lat="49.40213" lon="5.74801">
        <ele>315</ele>
        <time>2022-09-13T12:50:05.000Z</time>
      </trkpt>
      <trkpt lat="49.40206" lon="5.74804">
        <ele>314.60000610352</ele>
        <time>2022-09-13T12:50:06.000Z</time>
      </trkpt>
      <trkpt lat="49.40198" lon="5.74807">
        <ele>314</ele>
        <time>2022-09-13T12:50:07.000Z</time>
      </trkpt>
      <trkpt lat="49.40176" lon="5.74815">
        <ele>312.60000610352</ele>
        <time>2022-09-13T12:50:10.000Z</time>
      </trkpt>
      <trkpt lat="49.40171" lon="5.74817">
        <ele>312.39999389648</ele>
        <time>2022-09-13T12:50:11.000Z</time>
      </trkpt>
      <trkpt lat="49.40168" lon="5.7482">
        <ele>311.39999389648</ele>
        <time>2022-09-13T12:50:12.000Z</time>
      </trkpt>
      <trkpt lat="49.40164" lon="5.74822">
        <ele>311</ele>
        <time>2022-09-13T12:50:13.000Z</time>
      </trkpt>
      <trkpt lat="49.40161" lon="5.74823">
        <ele>309.79998779297</ele>
        <time>2022-09-13T12:50:14.000Z</time>
      </trkpt>
      <trkpt lat="49.40156" lon="5.74825">
        <ele>308.39999389648</ele>
        <time>2022-09-13T12:50:15.000Z</time>
      </trkpt>
      <trkpt lat="49.40147" lon="5.74829">
        <ele>307.20001220703</ele>
        <time>2022-09-13T12:50:17.000Z</time>
      </trkpt>
      <trkpt lat="49.40137" lon="5.74833">
        <ele>306.60000610352</ele>
        <time>2022-09-13T12:50:19.000Z</time>
      </trkpt>
      <trkpt lat="49.40125" lon="5.74838">
        <ele>306</ele>
        <time>2022-09-13T12:50:21.000Z</time>
      </trkpt>
      <trkpt lat="49.40113" lon="5.74844">
        <ele>305.39999389648</ele>
        <time>2022-09-13T12:50:23.000Z</time>
      </trkpt>
      <trkpt lat="49.40099" lon="5.74849">
        <ele>304.79998779297</ele>
        <time>2022-09-13T12:50:25.000Z</time>
      </trkpt>
      <trkpt lat="49.40071" lon="5.7486">
        <ele>303.60000610352</ele>
        <time>2022-09-13T12:50:29.000Z</time>
      </trkpt>
      <trkpt lat="49.4004" lon="5.74867">
        <ele>302.39999389648</ele>
        <time>2022-09-13T12:50:33.000Z</time>
      </trkpt>
      <trkpt lat="49.40023" lon="5.74866">
        <ele>302</ele>
        <time>2022-09-13T12:50:35.000Z</time>
      </trkpt>
      <trkpt lat="49.39998" lon="5.74857">
        <ele>301</ele>
        <time>2022-09-13T12:50:38.000Z</time>
      </trkpt>
      <trkpt lat="49.39989" lon="5.74852">
        <ele>300.60000610352</ele>
        <time>2022-09-13T12:50:39.000Z</time>
      </trkpt>
      <trkpt lat="49.39973" lon="5.7484">
        <ele>299.79998779297</ele>
        <time>2022-09-13T12:50:41.000Z</time>
      </trkpt>
      <trkpt lat="49.39945" lon="5.74818">
        <ele>298.20001220703</ele>
        <time>2022-09-13T12:50:44.000Z</time>
      </trkpt>
      <trkpt lat="49.39926" lon="5.74803">
        <ele>297</ele>
        <time>2022-09-13T12:50:46.000Z</time>
      </trkpt>
      <trkpt lat="49.39916" lon="5.74797">
        <ele>296.39999389648</ele>
        <time>2022-09-13T12:50:47.000Z</time>
      </trkpt>
      <trkpt lat="49.39905" lon="5.74794">
        <ele>296.20001220703</ele>
        <time>2022-09-13T12:50:48.000Z</time>
      </trkpt>
      <trkpt lat="49.39894" lon="5.74793">
        <ele>295.20001220703</ele>
        <time>2022-09-13T12:50:49.000Z</time>
      </trkpt>
      <trkpt lat="49.39884" lon="5.74798">
        <ele>294.60000610352</ele>
        <time>2022-09-13T12:50:50.000Z</time>
      </trkpt>
      <trkpt lat="49.39874" lon="5.74806">
        <ele>293.79998779297</ele>
        <time>2022-09-13T12:50:51.000Z</time>
      </trkpt>
      <trkpt lat="49.39866" lon="5.74817">
        <ele>292.79998779297</ele>
        <time>2022-09-13T12:50:52.000Z</time>
      </trkpt>
      <trkpt lat="49.39857" lon="5.74829">
        <ele>292.20001220703</ele>
        <time>2022-09-13T12:50:53.000Z</time>
      </trkpt>
      <trkpt lat="49.3985" lon="5.74842">
        <ele>291.20001220703</ele>
        <time>2022-09-13T12:50:54.000Z</time>
      </trkpt>
      <trkpt lat="49.39844" lon="5.74853">
        <ele>290.79998779297</ele>
        <time>2022-09-13T12:50:55.000Z</time>
      </trkpt>
      <trkpt lat="49.39839" lon="5.74865">
        <ele>289.60000610352</ele>
        <time>2022-09-13T12:50:56.000Z</time>
      </trkpt>
      <trkpt lat="49.39835" lon="5.74877">
        <ele>289</ele>
        <time>2022-09-13T12:50:57.000Z</time>
      </trkpt>
      <trkpt lat="49.39832" lon="5.74888">
        <ele>287.79998779297</ele>
        <time>2022-09-13T12:50:58.000Z</time>
      </trkpt>
      <trkpt lat="49.39828" lon="5.74896">
        <ele>286.79998779297</ele>
        <time>2022-09-13T12:50:59.000Z</time>
      </trkpt>
      <trkpt lat="49.39824" lon="5.749">
        <ele>286</ele>
        <time>2022-09-13T12:51:00.000Z</time>
      </trkpt>
      <trkpt lat="49.39822" lon="5.74904">
        <ele>285.20001220703</ele>
        <time>2022-09-13T12:51:01.000Z</time>
      </trkpt>
      <trkpt lat="49.39821" lon="5.74908">
        <ele>284.79998779297</ele>
        <time>2022-09-13T12:51:02.000Z</time>
      </trkpt>
      <trkpt lat="49.39819" lon="5.74911">
        <ele>283.79998779297</ele>
        <time>2022-09-13T12:51:03.000Z</time>
      </trkpt>
      <trkpt lat="49.39818" lon="5.74916">
        <ele>283.39999389648</ele>
        <time>2022-09-13T12:51:04.000Z</time>
      </trkpt>
      <trkpt lat="49.39817" lon="5.7492">
        <ele>282.60000610352</ele>
        <time>2022-09-13T12:51:05.000Z</time>
      </trkpt>
      <trkpt lat="49.39816" lon="5.74925">
        <ele>282.20001220703</ele>
        <time>2022-09-13T12:51:06.000Z</time>
      </trkpt>
      <trkpt lat="49.39813" lon="5.74936">
        <ele>281.79998779297</ele>
        <time>2022-09-13T12:51:08.000Z</time>
      </trkpt>
      <trkpt lat="49.39811" lon="5.74946">
        <ele>281.60000610352</ele>
        <time>2022-09-13T12:51:10.000Z</time>
      </trkpt>
      <trkpt lat="49.3981" lon="5.74951">
        <ele>281.60000610352</ele>
        <time>2022-09-13T12:51:11.000Z</time>
      </trkpt>
      <trkpt lat="49.39807" lon="5.74972">
        <ele>281.39999389648</ele>
        <time>2022-09-13T12:51:15.000Z</time>
      </trkpt>
      <trkpt lat="49.39802" lon="5.75004">
        <ele>282</ele>
        <time>2022-09-13T12:51:21.000Z</time>
      </trkpt>
      <trkpt lat="49.39797" lon="5.75038">
        <ele>282.60000610352</ele>
        <time>2022-09-13T12:51:27.000Z</time>
      </trkpt>
      <trkpt lat="49.39796" lon="5.75049">
        <ele>282.60000610352</ele>
        <time>2022-09-13T12:51:29.000Z</time>
      </trkpt>
      <trkpt lat="49.39791" lon="5.75077">
        <ele>283.79998779297</ele>
        <time>2022-09-13T12:51:35.000Z</time>
      </trkpt>
      <trkpt lat="49.39789" lon="5.75088">
        <ele>283.79998779297</ele>
        <time>2022-09-13T12:51:36.000Z</time>
      </trkpt>
      <trkpt lat="49.39789" lon="5.75094">
        <ele>284</ele>
        <time>2022-09-13T12:51:37.000Z</time>
      </trkpt>
      <trkpt lat="49.39788" lon="5.75099">
        <ele>284</ele>
        <time>2022-09-13T12:51:38.000Z</time>
      </trkpt>
      <trkpt lat="49.39781" lon="5.75126">
        <ele>284.79998779297</ele>
        <time>2022-09-13T12:51:43.000Z</time>
      </trkpt>
      <trkpt lat="49.39779" lon="5.75131">
        <ele>285</ele>
        <time>2022-09-13T12:51:44.000Z</time>
      </trkpt>
      <trkpt lat="49.39767" lon="5.75168">
        <ele>285.79998779297</ele>
        <time>2022-09-13T12:51:51.000Z</time>
      </trkpt>
      <trkpt lat="49.39765" lon="5.75173">
        <ele>286</ele>
        <time>2022-09-13T12:51:52.000Z</time>
      </trkpt>
      <trkpt lat="49.39763" lon="5.75178">
        <ele>286.20001220703</ele>
        <time>2022-09-13T12:51:53.000Z</time>
      </trkpt>
      <trkpt lat="49.39761" lon="5.75184">
        <ele>286.20001220703</ele>
        <time>2022-09-13T12:51:54.000Z</time>
      </trkpt>
      <trkpt lat="49.39759" lon="5.75191">
        <ele>286.39999389648</ele>
        <time>2022-09-13T12:51:55.000Z</time>
      </trkpt>
      <trkpt lat="49.39757" lon="5.75195">
        <ele>286.39999389648</ele>
        <time>2022-09-13T12:51:56.000Z</time>
      </trkpt>
      <trkpt lat="49.39754" lon="5.75201">
        <ele>286.39999389648</ele>
        <time>2022-09-13T12:51:57.000Z</time>
      </trkpt>
      <trkpt lat="49.39752" lon="5.75205">
        <ele>286.60000610352</ele>
        <time>2022-09-13T12:51:58.000Z</time>
      </trkpt>
      <trkpt lat="49.3975" lon="5.7521">
        <ele>286.60000610352</ele>
        <time>2022-09-13T12:51:59.000Z</time>
      </trkpt>
      <trkpt lat="49.39748" lon="5.75215">
        <ele>287</ele>
        <time>2022-09-13T12:52:00.000Z</time>
      </trkpt>
      <trkpt lat="49.39746" lon="5.7522">
        <ele>287.20001220703</ele>
        <time>2022-09-13T12:52:01.000Z</time>
      </trkpt>
      <trkpt lat="49.39744" lon="5.75225">
        <ele>287.39999389648</ele>
        <time>2022-09-13T12:52:02.000Z</time>
      </trkpt>
      <trkpt lat="49.39743" lon="5.7523">
        <ele>287.60000610352</ele>
        <time>2022-09-13T12:52:03.000Z</time>
      </trkpt>
      <trkpt lat="49.39741" lon="5.75234">
        <ele>287.60000610352</ele>
        <time>2022-09-13T12:52:04.000Z</time>
      </trkpt>
      <trkpt lat="49.39739" lon="5.75239">
        <ele>287.79998779297</ele>
        <time>2022-09-13T12:52:05.000Z</time>
      </trkpt>
      <trkpt lat="49.39737" lon="5.75244">
        <ele>288</ele>
        <time>2022-09-13T12:52:06.000Z</time>
      </trkpt>
      <trkpt lat="49.39734" lon="5.75249">
        <ele>288</ele>
        <time>2022-09-13T12:52:07.000Z</time>
      </trkpt>
      <trkpt lat="49.39732" lon="5.75254">
        <ele>288.20001220703</ele>
        <time>2022-09-13T12:52:08.000Z</time>
      </trkpt>
      <trkpt lat="49.3973" lon="5.75259">
        <ele>288.39999389648</ele>
        <time>2022-09-13T12:52:09.000Z</time>
      </trkpt>
      <trkpt lat="49.39728" lon="5.75264">
        <ele>288.39999389648</ele>
        <time>2022-09-13T12:52:10.000Z</time>
      </trkpt>
      <trkpt lat="49.39726" lon="5.75269">
        <ele>288.60000610352</ele>
        <time>2022-09-13T12:52:11.000Z</time>
      </trkpt>
      <trkpt lat="49.39724" lon="5.75274">
        <ele>288.60000610352</ele>
        <time>2022-09-13T12:52:12.000Z</time>
      </trkpt>
      <trkpt lat="49.39722" lon="5.75279">
        <ele>288.79998779297</ele>
        <time>2022-09-13T12:52:13.000Z</time>
      </trkpt>
      <trkpt lat="49.39721" lon="5.75284">
        <ele>288.79998779297</ele>
        <time>2022-09-13T12:52:14.000Z</time>
      </trkpt>
      <trkpt lat="49.39718" lon="5.75289">
        <ele>289.20001220703</ele>
        <time>2022-09-13T12:52:15.000Z</time>
      </trkpt>
      <trkpt lat="49.39716" lon="5.75294">
        <ele>289.39999389648</ele>
        <time>2022-09-13T12:52:16.000Z</time>
      </trkpt>
      <trkpt lat="49.39714" lon="5.75299">
        <ele>289.60000610352</ele>
        <time>2022-09-13T12:52:17.000Z</time>
      </trkpt>
      <trkpt lat="49.39712" lon="5.75303">
        <ele>289.79998779297</ele>
        <time>2022-09-13T12:52:18.000Z</time>
      </trkpt>
      <trkpt lat="49.39709" lon="5.75308">
        <ele>290.20001220703</ele>
        <time>2022-09-13T12:52:19.000Z</time>
      </trkpt>
      <trkpt lat="49.39706" lon="5.75313">
        <ele>290.60000610352</ele>
        <time>2022-09-13T12:52:20.000Z</time>
      </trkpt>
      <trkpt lat="49.39704" lon="5.75318">
        <ele>290.79998779297</ele>
        <time>2022-09-13T12:52:21.000Z</time>
      </trkpt>
      <trkpt lat="49.39702" lon="5.75323">
        <ele>291</ele>
        <time>2022-09-13T12:52:22.000Z</time>
      </trkpt>
      <trkpt lat="49.39699" lon="5.75328">
        <ele>291</ele>
        <time>2022-09-13T12:52:23.000Z</time>
      </trkpt>
      <trkpt lat="49.39697" lon="5.75333">
        <ele>291</ele>
        <time>2022-09-13T12:52:24.000Z</time>
      </trkpt>
      <trkpt lat="49.39694" lon="5.75338">
        <ele>291.39999389648</ele>
        <time>2022-09-13T12:52:25.000Z</time>
      </trkpt>
      <trkpt lat="49.39692" lon="5.75343">
        <ele>291.60000610352</ele>
        <time>2022-09-13T12:52:26.000Z</time>
      </trkpt>
      <trkpt lat="49.39689" lon="5.75348">
        <ele>291.79998779297</ele>
        <time>2022-09-13T12:52:27.000Z</time>
      </trkpt>
      <trkpt lat="49.39687" lon="5.75354">
        <ele>291.79998779297</ele>
        <time>2022-09-13T12:52:28.000Z</time>
      </trkpt>
      <trkpt lat="49.39685" lon="5.75359">
        <ele>292</ele>
        <time>2022-09-13T12:52:29.000Z</time>
      </trkpt>
      <trkpt lat="49.39682" lon="5.75365">
        <ele>292</ele>
        <time>2022-09-13T12:52:30.000Z</time>
      </trkpt>
      <trkpt lat="49.39679" lon="5.7537">
        <ele>292.20001220703</ele>
        <time>2022-09-13T12:52:31.000Z</time>
      </trkpt>
      <trkpt lat="49.39677" lon="5.75375">
        <ele>292.20001220703</ele>
        <time>2022-09-13T12:52:32.000Z</time>
      </trkpt>
      <trkpt lat="49.39674" lon="5.7538">
        <ele>292.39999389648</ele>
        <time>2022-09-13T12:52:33.000Z</time>
      </trkpt>
      <trkpt lat="49.39671" lon="5.75385">
        <ele>292.39999389648</ele>
        <time>2022-09-13T12:52:34.000Z</time>
      </trkpt>
      <trkpt lat="49.39667" lon="5.7539">
        <ele>292.60000610352</ele>
        <time>2022-09-13T12:52:35.000Z</time>
      </trkpt>
      <trkpt lat="49.39664" lon="5.75395">
        <ele>293</ele>
        <time>2022-09-13T12:52:36.000Z</time>
      </trkpt>
      <trkpt lat="49.39661" lon="5.75399">
        <ele>293</ele>
        <time>2022-09-13T12:52:37.000Z</time>
      </trkpt>
      <trkpt lat="49.39658" lon="5.75404">
        <ele>293.60000610352</ele>
        <time>2022-09-13T12:52:38.000Z</time>
      </trkpt>
      <trkpt lat="49.39654" lon="5.75409">
        <ele>293.79998779297</ele>
        <time>2022-09-13T12:52:39.000Z</time>
      </trkpt>
      <trkpt lat="49.39651" lon="5.75413">
        <ele>294</ele>
        <time>2022-09-13T12:52:40.000Z</time>
      </trkpt>
      <trkpt lat="49.39648" lon="5.75418">
        <ele>294.20001220703</ele>
        <time>2022-09-13T12:52:41.000Z</time>
      </trkpt>
      <trkpt lat="49.39641" lon="5.75427">
        <ele>294.60000610352</ele>
        <time>2022-09-13T12:52:43.000Z</time>
      </trkpt>
      <trkpt lat="49.39637" lon="5.75431">
        <ele>294.60000610352</ele>
        <time>2022-09-13T12:52:44.000Z</time>
      </trkpt>
      <trkpt lat="49.39633" lon="5.75435">
        <ele>294.79998779297</ele>
        <time>2022-09-13T12:52:45.000Z</time>
      </trkpt>
      <trkpt lat="49.39629" lon="5.75439">
        <ele>295</ele>
        <time>2022-09-13T12:52:46.000Z</time>
      </trkpt>
      <trkpt lat="49.39626" lon="5.75444">
        <ele>295.20001220703</ele>
        <time>2022-09-13T12:52:47.000Z</time>
      </trkpt>
      <trkpt lat="49.39622" lon="5.75448">
        <ele>295.39999389648</ele>
        <time>2022-09-13T12:52:48.000Z</time>
      </trkpt>
      <trkpt lat="49.39619" lon="5.75452">
        <ele>295.60000610352</ele>
        <time>2022-09-13T12:52:49.000Z</time>
      </trkpt>
      <trkpt lat="49.39615" lon="5.75456">
        <ele>295.60000610352</ele>
        <time>2022-09-13T12:52:50.000Z</time>
      </trkpt>
      <trkpt lat="49.39612" lon="5.75459">
        <ele>295.79998779297</ele>
        <time>2022-09-13T12:52:51.000Z</time>
      </trkpt>
      <trkpt lat="49.39608" lon="5.75463">
        <ele>296.20001220703</ele>
        <time>2022-09-13T12:52:52.000Z</time>
      </trkpt>
      <trkpt lat="49.39604" lon="5.75467">
        <ele>296.39999389648</ele>
        <time>2022-09-13T12:52:53.000Z</time>
      </trkpt>
      <trkpt lat="49.396" lon="5.75472">
        <ele>296.39999389648</ele>
        <time>2022-09-13T12:52:54.000Z</time>
      </trkpt>
      <trkpt lat="49.39596" lon="5.75477">
        <ele>296.60000610352</ele>
        <time>2022-09-13T12:52:55.000Z</time>
      </trkpt>
      <trkpt lat="49.39591" lon="5.75481">
        <ele>296.60000610352</ele>
        <time>2022-09-13T12:52:56.000Z</time>
      </trkpt>
      <trkpt lat="49.39588" lon="5.75485">
        <ele>297</ele>
        <time>2022-09-13T12:52:57.000Z</time>
      </trkpt>
      <trkpt lat="49.39584" lon="5.75488">
        <ele>297.20001220703</ele>
        <time>2022-09-13T12:52:58.000Z</time>
      </trkpt>
      <trkpt lat="49.39581" lon="5.75493">
        <ele>297.39999389648</ele>
        <time>2022-09-13T12:52:59.000Z</time>
      </trkpt>
      <trkpt lat="49.39577" lon="5.75496">
        <ele>297.79998779297</ele>
        <time>2022-09-13T12:53:00.000Z</time>
      </trkpt>
      <trkpt lat="49.39573" lon="5.755">
        <ele>297.79998779297</ele>
        <time>2022-09-13T12:53:01.000Z</time>
      </trkpt>
      <trkpt lat="49.39569" lon="5.75503">
        <ele>298.20001220703</ele>
        <time>2022-09-13T12:53:02.000Z</time>
      </trkpt>
      <trkpt lat="49.39566" lon="5.75507">
        <ele>298.20001220703</ele>
        <time>2022-09-13T12:53:03.000Z</time>
      </trkpt>
      <trkpt lat="49.39562" lon="5.75511">
        <ele>298.20001220703</ele>
        <time>2022-09-13T12:53:04.000Z</time>
      </trkpt>
      <trkpt lat="49.39559" lon="5.75514">
        <ele>298.39999389648</ele>
        <time>2022-09-13T12:53:05.000Z</time>
      </trkpt>
      <trkpt lat="49.39555" lon="5.75517">
        <ele>298.60000610352</ele>
        <time>2022-09-13T12:53:06.000Z</time>
      </trkpt>
      <trkpt lat="49.39551" lon="5.7552">
        <ele>299</ele>
        <time>2022-09-13T12:53:07.000Z</time>
      </trkpt>
      <trkpt lat="49.39548" lon="5.75524">
        <ele>299</ele>
        <time>2022-09-13T12:53:08.000Z</time>
      </trkpt>
      <trkpt lat="49.39544" lon="5.75528">
        <ele>299.60000610352</ele>
        <time>2022-09-13T12:53:09.000Z</time>
      </trkpt>
      <trkpt lat="49.39541" lon="5.75533">
        <ele>299.79998779297</ele>
        <time>2022-09-13T12:53:10.000Z</time>
      </trkpt>
      <trkpt lat="49.39538" lon="5.75536">
        <ele>300.20001220703</ele>
        <time>2022-09-13T12:53:11.000Z</time>
      </trkpt>
      <trkpt lat="49.39535" lon="5.7554">
        <ele>300.39999389648</ele>
        <time>2022-09-13T12:53:12.000Z</time>
      </trkpt>
      <trkpt lat="49.39531" lon="5.75543">
        <ele>300.60000610352</ele>
        <time>2022-09-13T12:53:13.000Z</time>
      </trkpt>
      <trkpt lat="49.39528" lon="5.75546">
        <ele>301</ele>
        <time>2022-09-13T12:53:14.000Z</time>
      </trkpt>
      <trkpt lat="49.39525" lon="5.7555">
        <ele>301</ele>
        <time>2022-09-13T12:53:15.000Z</time>
      </trkpt>
      <trkpt lat="49.39521" lon="5.75553">
        <ele>301.20001220703</ele>
        <time>2022-09-13T12:53:16.000Z</time>
      </trkpt>
      <trkpt lat="49.39518" lon="5.75557">
        <ele>301.20001220703</ele>
        <time>2022-09-13T12:53:17.000Z</time>
      </trkpt>
      <trkpt lat="49.39514" lon="5.7556">
        <ele>301.39999389648</ele>
        <time>2022-09-13T12:53:18.000Z</time>
      </trkpt>
      <trkpt lat="49.39512" lon="5.75564">
        <ele>301.60000610352</ele>
        <time>2022-09-13T12:53:19.000Z</time>
      </trkpt>
      <trkpt lat="49.39509" lon="5.75568">
        <ele>301.79998779297</ele>
        <time>2022-09-13T12:53:20.000Z</time>
      </trkpt>
      <trkpt lat="49.39506" lon="5.75572">
        <ele>302.20001220703</ele>
        <time>2022-09-13T12:53:21.000Z</time>
      </trkpt>
      <trkpt lat="49.39503" lon="5.75578">
        <ele>302.20001220703</ele>
        <time>2022-09-13T12:53:22.000Z</time>
      </trkpt>
      <trkpt lat="49.395" lon="5.75583">
        <ele>302.39999389648</ele>
        <time>2022-09-13T12:53:23.000Z</time>
      </trkpt>
      <trkpt lat="49.39497" lon="5.75587">
        <ele>302.60000610352</ele>
        <time>2022-09-13T12:53:24.000Z</time>
      </trkpt>
      <trkpt lat="49.39495" lon="5.75592">
        <ele>302.79998779297</ele>
        <time>2022-09-13T12:53:25.000Z</time>
      </trkpt>
      <trkpt lat="49.39492" lon="5.75596">
        <ele>303</ele>
        <time>2022-09-13T12:53:26.000Z</time>
      </trkpt>
      <trkpt lat="49.3949" lon="5.75601">
        <ele>303.20001220703</ele>
        <time>2022-09-13T12:53:27.000Z</time>
      </trkpt>
      <trkpt lat="49.39487" lon="5.75605">
        <ele>303.39999389648</ele>
        <time>2022-09-13T12:53:28.000Z</time>
      </trkpt>
      <trkpt lat="49.39485" lon="5.75609">
        <ele>303.60000610352</ele>
        <time>2022-09-13T12:53:29.000Z</time>
      </trkpt>
      <trkpt lat="49.39483" lon="5.75613">
        <ele>304.20001220703</ele>
        <time>2022-09-13T12:53:30.000Z</time>
      </trkpt>
      <trkpt lat="49.3948" lon="5.75617">
        <ele>304.39999389648</ele>
        <time>2022-09-13T12:53:31.000Z</time>
      </trkpt>
      <trkpt lat="49.39479" lon="5.75621">
        <ele>305</ele>
        <time>2022-09-13T12:53:32.000Z</time>
      </trkpt>
      <trkpt lat="49.39477" lon="5.75625">
        <ele>305.20001220703</ele>
        <time>2022-09-13T12:53:33.000Z</time>
      </trkpt>
      <trkpt lat="49.39473" lon="5.75632">
        <ele>305.79998779297</ele>
        <time>2022-09-13T12:53:35.000Z</time>
      </trkpt>
      <trkpt lat="49.39472" lon="5.75636">
        <ele>306</ele>
        <time>2022-09-13T12:53:36.000Z</time>
      </trkpt>
      <trkpt lat="49.3947" lon="5.7564">
        <ele>306.39999389648</ele>
        <time>2022-09-13T12:53:37.000Z</time>
      </trkpt>
      <trkpt lat="49.39468" lon="5.75644">
        <ele>306.60000610352</ele>
        <time>2022-09-13T12:53:38.000Z</time>
      </trkpt>
      <trkpt lat="49.39466" lon="5.75647">
        <ele>306.79998779297</ele>
        <time>2022-09-13T12:53:39.000Z</time>
      </trkpt>
      <trkpt lat="49.39464" lon="5.75651">
        <ele>307</ele>
        <time>2022-09-13T12:53:40.000Z</time>
      </trkpt>
      <trkpt lat="49.39463" lon="5.75655">
        <ele>307.20001220703</ele>
        <time>2022-09-13T12:53:41.000Z</time>
      </trkpt>
      <trkpt lat="49.39461" lon="5.75658">
        <ele>307.39999389648</ele>
        <time>2022-09-13T12:53:42.000Z</time>
      </trkpt>
      <trkpt lat="49.39459" lon="5.75662">
        <ele>307.60000610352</ele>
        <time>2022-09-13T12:53:43.000Z</time>
      </trkpt>
      <trkpt lat="49.39457" lon="5.75667">
        <ele>308</ele>
        <time>2022-09-13T12:53:44.000Z</time>
      </trkpt>
      <trkpt lat="49.39455" lon="5.75671">
        <ele>308.39999389648</ele>
        <time>2022-09-13T12:53:45.000Z</time>
      </trkpt>
      <trkpt lat="49.39453" lon="5.75675">
        <ele>309</ele>
        <time>2022-09-13T12:53:46.000Z</time>
      </trkpt>
      <trkpt lat="49.39451" lon="5.75679">
        <ele>309.39999389648</ele>
        <time>2022-09-13T12:53:47.000Z</time>
      </trkpt>
      <trkpt lat="49.39449" lon="5.75683">
        <ele>309.79998779297</ele>
        <time>2022-09-13T12:53:48.000Z</time>
      </trkpt>
      <trkpt lat="49.39447" lon="5.75688">
        <ele>310.20001220703</ele>
        <time>2022-09-13T12:53:49.000Z</time>
      </trkpt>
      <trkpt lat="49.39445" lon="5.75693">
        <ele>310.20001220703</ele>
        <time>2022-09-13T12:53:50.000Z</time>
      </trkpt>
      <trkpt lat="49.39444" lon="5.75697">
        <ele>310.39999389648</ele>
        <time>2022-09-13T12:53:51.000Z</time>
      </trkpt>
      <trkpt lat="49.39441" lon="5.75701">
        <ele>310.60000610352</ele>
        <time>2022-09-13T12:53:52.000Z</time>
      </trkpt>
      <trkpt lat="49.39439" lon="5.75706">
        <ele>310.79998779297</ele>
        <time>2022-09-13T12:53:53.000Z</time>
      </trkpt>
      <trkpt lat="49.39437" lon="5.7571">
        <ele>311</ele>
        <time>2022-09-13T12:53:54.000Z</time>
      </trkpt>
      <trkpt lat="49.39435" lon="5.75715">
        <ele>311</ele>
        <time>2022-09-13T12:53:55.000Z</time>
      </trkpt>
      <trkpt lat="49.39432" lon="5.75719">
        <ele>311.20001220703</ele>
        <time>2022-09-13T12:53:56.000Z</time>
      </trkpt>
      <trkpt lat="49.3943" lon="5.75723">
        <ele>311.20001220703</ele>
        <time>2022-09-13T12:53:57.000Z</time>
      </trkpt>
      <trkpt lat="49.39428" lon="5.75728">
        <ele>311.39999389648</ele>
        <time>2022-09-13T12:53:58.000Z</time>
      </trkpt>
      <trkpt lat="49.39425" lon="5.75733">
        <ele>311.39999389648</ele>
        <time>2022-09-13T12:53:59.000Z</time>
      </trkpt>
      <trkpt lat="49.39424" lon="5.75737">
        <ele>311.39999389648</ele>
        <time>2022-09-13T12:54:00.000Z</time>
      </trkpt>
      <trkpt lat="49.39422" lon="5.75742">
        <ele>311.39999389648</ele>
        <time>2022-09-13T12:54:01.000Z</time>
      </trkpt>
      <trkpt lat="49.39419" lon="5.75747">
        <ele>311.60000610352</ele>
        <time>2022-09-13T12:54:02.000Z</time>
      </trkpt>
      <trkpt lat="49.39418" lon="5.75751">
        <ele>311.60000610352</ele>
        <time>2022-09-13T12:54:03.000Z</time>
      </trkpt>
      <trkpt lat="49.39416" lon="5.75755">
        <ele>311.60000610352</ele>
        <time>2022-09-13T12:54:04.000Z</time>
      </trkpt>
      <trkpt lat="49.39414" lon="5.75759">
        <ele>311.79998779297</ele>
        <time>2022-09-13T12:54:05.000Z</time>
      </trkpt>
      <trkpt lat="49.39412" lon="5.75764">
        <ele>311.79998779297</ele>
        <time>2022-09-13T12:54:06.000Z</time>
      </trkpt>
      <trkpt lat="49.3941" lon="5.75768">
        <ele>311.79998779297</ele>
        <time>2022-09-13T12:54:07.000Z</time>
      </trkpt>
      <trkpt lat="49.39408" lon="5.75773">
        <ele>312</ele>
        <time>2022-09-13T12:54:08.000Z</time>
      </trkpt>
      <trkpt lat="49.39406" lon="5.75777">
        <ele>312</ele>
        <time>2022-09-13T12:54:09.000Z</time>
      </trkpt>
      <trkpt lat="49.39404" lon="5.75782">
        <ele>312.20001220703</ele>
        <time>2022-09-13T12:54:10.000Z</time>
      </trkpt>
      <trkpt lat="49.39402" lon="5.75786">
        <ele>312.20001220703</ele>
        <time>2022-09-13T12:54:11.000Z</time>
      </trkpt>
      <trkpt lat="49.394" lon="5.7579">
        <ele>312.20001220703</ele>
        <time>2022-09-13T12:54:12.000Z</time>
      </trkpt>
      <trkpt lat="49.39397" lon="5.75794">
        <ele>312.20001220703</ele>
        <time>2022-09-13T12:54:13.000Z</time>
      </trkpt>
      <trkpt lat="49.39395" lon="5.75798">
        <ele>312.39999389648</ele>
        <time>2022-09-13T12:54:14.000Z</time>
      </trkpt>
      <trkpt lat="49.39393" lon="5.75803">
        <ele>312.39999389648</ele>
        <time>2022-09-13T12:54:15.000Z</time>
      </trkpt>
      <trkpt lat="49.39388" lon="5.75812">
        <ele>312.60000610352</ele>
        <time>2022-09-13T12:54:17.000Z</time>
      </trkpt>
      <trkpt lat="49.39386" lon="5.75816">
        <ele>312.60000610352</ele>
        <time>2022-09-13T12:54:18.000Z</time>
      </trkpt>
      <trkpt lat="49.39384" lon="5.75821">
        <ele>312.60000610352</ele>
        <time>2022-09-13T12:54:19.000Z</time>
      </trkpt>
      <trkpt lat="49.39382" lon="5.75825">
        <ele>312.79998779297</ele>
        <time>2022-09-13T12:54:20.000Z</time>
      </trkpt>
      <trkpt lat="49.39367" lon="5.75862">
        <ele>313</ele>
        <time>2022-09-13T12:54:28.000Z</time>
      </trkpt>
      <trkpt lat="49.39366" lon="5.75867">
        <ele>313.20001220703</ele>
        <time>2022-09-13T12:54:29.000Z</time>
      </trkpt>
      <trkpt lat="49.39366" lon="5.75872">
        <ele>313.20001220703</ele>
        <time>2022-09-13T12:54:30.000Z</time>
      </trkpt>
      <trkpt lat="49.39366" lon="5.75876">
        <ele>313.20001220703</ele>
        <time>2022-09-13T12:54:31.000Z</time>
      </trkpt>
      <trkpt lat="49.39367" lon="5.75881">
        <ele>313.39999389648</ele>
        <time>2022-09-13T12:54:32.000Z</time>
      </trkpt>
      <trkpt lat="49.3937" lon="5.75887">
        <ele>313.39999389648</ele>
        <time>2022-09-13T12:54:33.000Z</time>
      </trkpt>
      <trkpt lat="49.39372" lon="5.75892">
        <ele>313.39999389648</ele>
        <time>2022-09-13T12:54:34.000Z</time>
      </trkpt>
      <trkpt lat="49.39373" lon="5.75897">
        <ele>313.39999389648</ele>
        <time>2022-09-13T12:54:35.000Z</time>
      </trkpt>
      <trkpt lat="49.39384" lon="5.75933">
        <ele>314.20001220703</ele>
        <time>2022-09-13T12:54:42.000Z</time>
      </trkpt>
      <trkpt lat="49.39399" lon="5.75985">
        <ele>314.60000610352</ele>
        <time>2022-09-13T12:54:51.000Z</time>
      </trkpt>
      <trkpt lat="49.39402" lon="5.75997">
        <ele>314.79998779297</ele>
        <time>2022-09-13T12:54:53.000Z</time>
      </trkpt>
      <trkpt lat="49.39415" lon="5.7605">
        <ele>315</ele>
        <time>2022-09-13T12:55:02.000Z</time>
      </trkpt>
      <trkpt lat="49.39432" lon="5.76101">
        <ele>314.79998779297</ele>
        <time>2022-09-13T12:55:10.000Z</time>
      </trkpt>
      <trkpt lat="49.39436" lon="5.76118">
        <ele>314.79998779297</ele>
        <time>2022-09-13T12:55:13.000Z</time>
      </trkpt>
      <trkpt lat="49.39441" lon="5.7613">
        <ele>314.79998779297</ele>
        <time>2022-09-13T12:55:15.000Z</time>
      </trkpt>
      <trkpt lat="49.39443" lon="5.76136">
        <ele>314.79998779297</ele>
        <time>2022-09-13T12:55:16.000Z</time>
      </trkpt>
      <trkpt lat="49.39461" lon="5.76195">
        <ele>314.60000610352</ele>
        <time>2022-09-13T12:55:25.000Z</time>
      </trkpt>
      <trkpt lat="49.3947" lon="5.76226">
        <ele>314.39999389648</ele>
        <time>2022-09-13T12:55:30.000Z</time>
      </trkpt>
      <trkpt lat="49.39472" lon="5.76232">
        <ele>314.39999389648</ele>
        <time>2022-09-13T12:55:31.000Z</time>
      </trkpt>
      <trkpt lat="49.39474" lon="5.76238">
        <ele>314.39999389648</ele>
        <time>2022-09-13T12:55:32.000Z</time>
      </trkpt>
      <trkpt lat="49.39475" lon="5.76244">
        <ele>314.39999389648</ele>
        <time>2022-09-13T12:55:33.000Z</time>
      </trkpt>
      <trkpt lat="49.39477" lon="5.76249">
        <ele>314.39999389648</ele>
        <time>2022-09-13T12:55:34.000Z</time>
      </trkpt>
      <trkpt lat="49.39479" lon="5.76255">
        <ele>314.39999389648</ele>
        <time>2022-09-13T12:55:35.000Z</time>
      </trkpt>
      <trkpt lat="49.3948" lon="5.76261">
        <ele>314.60000610352</ele>
        <time>2022-09-13T12:55:36.000Z</time>
      </trkpt>
      <trkpt lat="49.39482" lon="5.76266">
        <ele>314.60000610352</ele>
        <time>2022-09-13T12:55:37.000Z</time>
      </trkpt>
      <trkpt lat="49.39483" lon="5.76272">
        <ele>314.60000610352</ele>
        <time>2022-09-13T12:55:38.000Z</time>
      </trkpt>
      <trkpt lat="49.39485" lon="5.76277">
        <ele>314.60000610352</ele>
        <time>2022-09-13T12:55:39.000Z</time>
      </trkpt>
      <trkpt lat="49.39487" lon="5.76283">
        <ele>314.60000610352</ele>
        <time>2022-09-13T12:55:40.000Z</time>
      </trkpt>
      <trkpt lat="49.39489" lon="5.7629">
        <ele>314.79998779297</ele>
        <time>2022-09-13T12:55:41.000Z</time>
      </trkpt>
      <trkpt lat="49.39491" lon="5.76295">
        <ele>314.79998779297</ele>
        <time>2022-09-13T12:55:42.000Z</time>
      </trkpt>
      <trkpt lat="49.39511" lon="5.76358">
        <ele>315.39999389648</ele>
        <time>2022-09-13T12:55:53.000Z</time>
      </trkpt>
      <trkpt lat="49.39512" lon="5.76363">
        <ele>315.79998779297</ele>
        <time>2022-09-13T12:55:54.000Z</time>
      </trkpt>
      <trkpt lat="49.39513" lon="5.76367">
        <ele>315.79998779297</ele>
        <time>2022-09-13T12:55:55.000Z</time>
      </trkpt>
      <trkpt lat="49.39513" lon="5.76372">
        <ele>315.79998779297</ele>
        <time>2022-09-13T12:55:56.000Z</time>
      </trkpt>
      <trkpt lat="49.39512" lon="5.76376">
        <ele>315.79998779297</ele>
        <time>2022-09-13T12:55:57.000Z</time>
      </trkpt>
      <trkpt lat="49.39509" lon="5.76377">
        <ele>315.79998779297</ele>
        <time>2022-09-13T12:55:58.000Z</time>
      </trkpt>
      <trkpt lat="49.39506" lon="5.76377">
        <ele>315.79998779297</ele>
        <time>2022-09-13T12:55:59.000Z</time>
      </trkpt>
      <trkpt lat="49.39503" lon="5.76376">
        <ele>316</ele>
        <time>2022-09-13T12:56:00.000Z</time>
      </trkpt>
      <trkpt lat="49.39497" lon="5.76375">
        <ele>316</ele>
        <time>2022-09-13T12:56:02.000Z</time>
      </trkpt>
      <trkpt lat="49.39493" lon="5.76375">
        <ele>316</ele>
        <time>2022-09-13T12:56:03.000Z</time>
      </trkpt>
      <trkpt lat="49.3947" lon="5.76373">
        <ele>315.79998779297</ele>
        <time>2022-09-13T12:56:09.000Z</time>
      </trkpt>
      <trkpt lat="49.39444" lon="5.76373">
        <ele>315.60000610352</ele>
        <time>2022-09-13T12:56:16.000Z</time>
      </trkpt>
      <trkpt lat="49.39442" lon="5.76376">
        <ele>315.60000610352</ele>
        <time>2022-09-13T12:56:17.000Z</time>
      </trkpt>
      <trkpt lat="49.39441" lon="5.7638">
        <ele>315.39999389648</ele>
        <time>2022-09-13T12:56:18.000Z</time>
      </trkpt>
      <trkpt lat="49.39442" lon="5.76384">
        <ele>315.39999389648</ele>
        <time>2022-09-13T12:56:19.000Z</time>
      </trkpt>
      <trkpt lat="49.39443" lon="5.76389">
        <ele>315.39999389648</ele>
        <time>2022-09-13T12:56:20.000Z</time>
      </trkpt>
      <trkpt lat="49.39448" lon="5.76407">
        <ele>315.60000610352</ele>
        <time>2022-09-13T12:56:24.000Z</time>
      </trkpt>
      <trkpt lat="49.39449" lon="5.76412">
        <ele>315.79998779297</ele>
        <time>2022-09-13T12:56:25.000Z</time>
      </trkpt>
      <trkpt lat="49.39448" lon="5.76418">
        <ele>315.79998779297</ele>
        <time>2022-09-13T12:56:26.000Z</time>
      </trkpt>
      <trkpt lat="49.39447" lon="5.76422">
        <ele>316</ele>
        <time>2022-09-13T12:56:27.000Z</time>
      </trkpt>
      <trkpt lat="49.39446" lon="5.76427">
        <ele>315.79998779297</ele>
        <time>2022-09-13T12:56:28.000Z</time>
      </trkpt>
      <trkpt lat="49.39446" lon="5.7643">
        <ele>316</ele>
        <time>2022-09-13T12:56:29.000Z</time>
      </trkpt>
      <trkpt lat="49.39446" lon="5.7643">
        <ele>316</ele>
        <time>2022-09-13T12:56:30.000Z</time>
      </trkpt>
    </trkseg>
  </trk>
</gpx>